<?xml version="1.0" encoding="UTF-8"?><gpx xmlns="http://www.topografix.com/GPX/1/1" version="1.1" creator="iOrient"><trk><name>Новогодний замес</name><trkseg><trkpt lat="56.8454600" lon="53.2135483"><time>2025-12-27T12:38:08.123</time></trkpt><trkpt lat="56.8454583" lon="53.2135467"><time>2025-12-27T12:38:09.087</time></trkpt><trkpt lat="56.8453667" lon="53.2135583"><time>2025-12-27T12:38:33.087</time></trkpt><trkpt lat="56.8454083" lon="53.2136583"><time>2025-12-27T12:38:59.090</time></trkpt><trkpt lat="56.8453967" lon="53.2135433"><time>2025-12-27T12:39:02.090</time></trkpt><trkpt lat="56.8454183" lon="53.2136217"><time>2025-12-27T12:39:10.087</time></trkpt><trkpt lat="56.8453800" lon="53.2135767"><time>2025-12-27T12:39:12.093</time></trkpt><trkpt lat="56.8454317" lon="53.2135717"><time>2025-12-27T12:39:16.093</time></trkpt><trkpt lat="56.8455600" lon="53.2136317"><time>2025-12-27T12:39:49.097</time></trkpt><trkpt lat="56.8455133" lon="53.2135783"><time>2025-12-27T12:39:52.077</time></trkpt><trkpt lat="56.8454300" lon="53.2136100"><time>2025-12-27T12:40:11.100</time></trkpt><trkpt lat="56.8454550" lon="53.2137350"><time>2025-12-27T12:40:22.093</time></trkpt><trkpt lat="56.8454850" lon="53.2138517"><time>2025-12-27T12:40:33.100</time></trkpt><trkpt lat="56.8455000" lon="53.2137717"><time>2025-12-27T12:40:40.100</time></trkpt><trkpt lat="56.8454850" lon="53.2136900"><time>2025-12-27T12:40:46.080</time></trkpt><trkpt lat="56.8454350" lon="53.2136767"><time>2025-12-27T12:40:52.090</time></trkpt><trkpt lat="56.8453983" lon="53.2136233"><time>2025-12-27T12:41:00.070</time></trkpt><trkpt lat="56.8453467" lon="53.2136100"><time>2025-12-27T12:41:03.137</time></trkpt><trkpt lat="56.8453950" lon="53.2135917"><time>2025-12-27T12:42:02.087</time></trkpt><trkpt lat="56.8454700" lon="53.2136600"><time>2025-12-27T12:42:35.103</time></trkpt><trkpt lat="56.8454450" lon="53.2135800"><time>2025-12-27T12:42:53.107</time></trkpt><trkpt lat="56.8454050" lon="53.2135167"><time>2025-12-27T12:42:59.097</time></trkpt><trkpt lat="56.8453600" lon="53.2134900"><time>2025-12-27T12:43:04.083</time></trkpt><trkpt lat="56.8454083" lon="53.2134700"><time>2025-12-27T12:43:17.107</time></trkpt><trkpt lat="56.8454500" lon="53.2135017"><time>2025-12-27T12:43:24.093</time></trkpt><trkpt lat="56.8454017" lon="53.2134717"><time>2025-12-27T12:43:39.100</time></trkpt><trkpt lat="56.8453667" lon="53.2134033"><time>2025-12-27T12:43:45.090</time></trkpt><trkpt lat="56.8453850" lon="53.2135083"><time>2025-12-27T12:44:18.097</time></trkpt><trkpt lat="56.8453567" lon="53.2136200"><time>2025-12-27T12:44:27.107</time></trkpt><trkpt lat="56.8453983" lon="53.2136717"><time>2025-12-27T12:44:47.103</time></trkpt><trkpt lat="56.8454367" lon="53.2138367"><time>2025-12-27T12:44:58.050</time></trkpt><trkpt lat="56.8454600" lon="53.2137483"><time>2025-12-27T12:45:08.093</time></trkpt><trkpt lat="56.8454283" lon="53.2138367"><time>2025-12-27T12:45:15.103</time></trkpt><trkpt lat="56.8454433" lon="53.2137400"><time>2025-12-27T12:45:24.090</time></trkpt><trkpt lat="56.8454433" lon="53.2135917"><time>2025-12-27T12:45:26.090</time></trkpt><trkpt lat="56.8454650" lon="53.2135150"><time>2025-12-27T12:45:31.097</time></trkpt><trkpt lat="56.8454517" lon="53.2135950"><time>2025-12-27T12:45:37.100</time></trkpt><trkpt lat="56.8454483" lon="53.2137267"><time>2025-12-27T12:45:42.087</time></trkpt><trkpt lat="56.8454283" lon="53.2138700"><time>2025-12-27T12:45:46.060</time></trkpt><trkpt lat="56.8454217" lon="53.2139550"><time>2025-12-27T12:45:47.073</time></trkpt><trkpt lat="56.8454150" lon="53.2140567"><time>2025-12-27T12:45:49.087</time></trkpt><trkpt lat="56.8453933" lon="53.2141567"><time>2025-12-27T12:45:51.087</time></trkpt><trkpt lat="56.8454383" lon="53.2141450"><time>2025-12-27T12:46:06.113</time></trkpt><trkpt lat="56.8454550" lon="53.2140650"><time>2025-12-27T12:46:10.090</time></trkpt><trkpt lat="56.8454717" lon="53.2141467"><time>2025-12-27T12:46:13.103</time></trkpt><trkpt lat="56.8454983" lon="53.2140750"><time>2025-12-27T12:46:18.093</time></trkpt><trkpt lat="56.8455433" lon="53.2139267"><time>2025-12-27T12:46:20.097</time></trkpt><trkpt lat="56.8455517" lon="53.2138400"><time>2025-12-27T12:46:26.080</time></trkpt><trkpt lat="56.8455567" lon="53.2137283"><time>2025-12-27T12:46:29.103</time></trkpt><trkpt lat="56.8455217" lon="53.2138067"><time>2025-12-27T12:46:37.087</time></trkpt><trkpt lat="56.8455200" lon="53.2137200"><time>2025-12-27T12:46:42.117</time></trkpt><trkpt lat="56.8454667" lon="53.2137433"><time>2025-12-27T12:46:45.117</time></trkpt><trkpt lat="56.8454967" lon="53.2138200"><time>2025-12-27T12:46:50.067</time></trkpt><trkpt lat="56.8455017" lon="53.2139233"><time>2025-12-27T12:46:56.097</time></trkpt><trkpt lat="56.8454867" lon="53.2140850"><time>2025-12-27T12:46:58.097</time></trkpt><trkpt lat="56.8454817" lon="53.2141950"><time>2025-12-27T12:47:00.097</time></trkpt><trkpt lat="56.8455083" lon="53.2141250"><time>2025-12-27T12:47:04.083</time></trkpt><trkpt lat="56.8455467" lon="53.2140767"><time>2025-12-27T12:47:12.087</time></trkpt><trkpt lat="56.8454967" lon="53.2139700"><time>2025-12-27T12:47:25.103</time></trkpt><trkpt lat="56.8454833" lon="53.2138583"><time>2025-12-27T12:47:33.097</time></trkpt><trkpt lat="56.8455000" lon="53.2137750"><time>2025-12-27T12:47:37.110</time></trkpt><trkpt lat="56.8454550" lon="53.2137733"><time>2025-12-27T12:47:44.093</time></trkpt><trkpt lat="56.8455083" lon="53.2137600"><time>2025-12-27T12:47:54.073</time></trkpt><trkpt lat="56.8455467" lon="53.2137017"><time>2025-12-27T12:48:00.067</time></trkpt><trkpt lat="56.8455817" lon="53.2137533"><time>2025-12-27T12:48:04.090</time></trkpt><trkpt lat="56.8456217" lon="53.2137067"><time>2025-12-27T12:48:07.097</time></trkpt><trkpt lat="56.8455667" lon="53.2136600"><time>2025-12-27T12:48:14.090</time></trkpt><trkpt lat="56.8455083" lon="53.2136917"><time>2025-12-27T12:48:16.107</time></trkpt><trkpt lat="56.8454583" lon="53.2136683"><time>2025-12-27T12:48:19.093</time></trkpt><trkpt lat="56.8454400" lon="53.2135533"><time>2025-12-27T12:48:31.100</time></trkpt><trkpt lat="56.8454300" lon="53.2136333"><time>2025-12-27T12:48:36.093</time></trkpt><trkpt lat="56.8454350" lon="53.2137550"><time>2025-12-27T12:48:37.100</time></trkpt><trkpt lat="56.8454533" lon="53.2138750"><time>2025-12-27T12:48:39.100</time></trkpt><trkpt lat="56.8454467" lon="53.2140000"><time>2025-12-27T12:48:49.103</time></trkpt><trkpt lat="56.8454233" lon="53.2140867"><time>2025-12-27T12:48:52.097</time></trkpt><trkpt lat="56.8454100" lon="53.2141733"><time>2025-12-27T12:48:54.077</time></trkpt><trkpt lat="56.8454100" lon="53.2142717"><time>2025-12-27T12:48:59.093</time></trkpt><trkpt lat="56.8453933" lon="53.2143483"><time>2025-12-27T12:49:04.140</time></trkpt><trkpt lat="56.8453983" lon="53.2143517"><time>2025-12-27T12:49:05.080</time></trkpt><trkpt lat="56.8454200" lon="53.2142700"><time>2025-12-27T12:49:18.117</time></trkpt><trkpt lat="56.8454250" lon="53.2142433"><time>2025-12-27T12:49:19.087</time></trkpt><trkpt lat="56.8454233" lon="53.2141483"><time>2025-12-27T12:49:26.097</time></trkpt><trkpt lat="56.8453583" lon="53.2141967"><time>2025-12-27T12:49:28.093</time></trkpt><trkpt lat="56.8453200" lon="53.2141267"><time>2025-12-27T12:49:29.103</time></trkpt><trkpt lat="56.8452867" lon="53.2140550"><time>2025-12-27T12:49:30.087</time></trkpt><trkpt lat="56.8452883" lon="53.2139450"><time>2025-12-27T12:49:33.100</time></trkpt><trkpt lat="56.8453267" lon="53.2138833"><time>2025-12-27T12:49:37.107</time></trkpt><trkpt lat="56.8453817" lon="53.2138333"><time>2025-12-27T12:49:40.087</time></trkpt><trkpt lat="56.8454183" lon="53.2137300"><time>2025-12-27T12:49:46.087</time></trkpt><trkpt lat="56.8454700" lon="53.2136917"><time>2025-12-27T12:49:50.093</time></trkpt><trkpt lat="56.8454450" lon="53.2137733"><time>2025-12-27T12:50:10.077</time></trkpt><trkpt lat="56.8454083" lon="53.2137217"><time>2025-12-27T12:50:28.090</time></trkpt><trkpt lat="56.8454667" lon="53.2137617"><time>2025-12-27T12:50:35.097</time></trkpt><trkpt lat="56.8454250" lon="53.2137967"><time>2025-12-27T12:50:46.093</time></trkpt><trkpt lat="56.8453817" lon="53.2138300"><time>2025-12-27T12:50:53.073</time></trkpt><trkpt lat="56.8453917" lon="53.2137400"><time>2025-12-27T12:51:04.077</time></trkpt><trkpt lat="56.8453983" lon="53.2136467"><time>2025-12-27T12:51:05.080</time></trkpt><trkpt lat="56.8453933" lon="53.2135400"><time>2025-12-27T12:51:06.063</time></trkpt><trkpt lat="56.8453800" lon="53.2133217"><time>2025-12-27T12:51:08.090</time></trkpt><trkpt lat="56.8453967" lon="53.2134017"><time>2025-12-27T12:51:11.090</time></trkpt><trkpt lat="56.8453983" lon="53.2135117"><time>2025-12-27T12:51:17.097</time></trkpt><trkpt lat="56.8454333" lon="53.2136033"><time>2025-12-27T12:51:18.097</time></trkpt><trkpt lat="56.8454517" lon="53.2136883"><time>2025-12-27T12:51:25.087</time></trkpt><trkpt lat="56.8454333" lon="53.2137700"><time>2025-12-27T12:51:32.097</time></trkpt><trkpt lat="56.8453900" lon="53.2138150"><time>2025-12-27T12:51:51.053</time></trkpt><trkpt lat="56.8453883" lon="53.2137183"><time>2025-12-27T12:51:57.097</time></trkpt><trkpt lat="56.8454617" lon="53.2136900"><time>2025-12-27T12:51:58.090</time></trkpt><trkpt lat="56.8455300" lon="53.2136500"><time>2025-12-27T12:52:00.080</time></trkpt><trkpt lat="56.8455933" lon="53.2136383"><time>2025-12-27T12:52:02.090</time></trkpt><trkpt lat="56.8456733" lon="53.2136233"><time>2025-12-27T12:52:06.083</time></trkpt><trkpt lat="56.8457217" lon="53.2135883"><time>2025-12-27T12:52:07.093</time></trkpt><trkpt lat="56.8455933" lon="53.2140317"><time>2025-12-27T12:52:38.090</time></trkpt><trkpt lat="56.8455400" lon="53.2139967"><time>2025-12-27T12:52:42.083</time></trkpt><trkpt lat="56.8455300" lon="53.2138983"><time>2025-12-27T12:52:48.067</time></trkpt><trkpt lat="56.8454800" lon="53.2138200"><time>2025-12-27T12:52:50.097</time></trkpt><trkpt lat="56.8454717" lon="53.2136550"><time>2025-12-27T12:53:02.083</time></trkpt><trkpt lat="56.8454900" lon="53.2137517"><time>2025-12-27T12:53:06.087</time></trkpt><trkpt lat="56.8454600" lon="53.2138250"><time>2025-12-27T12:53:21.100</time></trkpt><trkpt lat="56.8454550" lon="53.2139083"><time>2025-12-27T12:53:28.083</time></trkpt><trkpt lat="56.8454483" lon="53.2140067"><time>2025-12-27T12:53:36.100</time></trkpt><trkpt lat="56.8454650" lon="53.2139300"><time>2025-12-27T12:53:58.097</time></trkpt><trkpt lat="56.8454550" lon="53.2138250"><time>2025-12-27T12:54:14.103</time></trkpt><trkpt lat="56.8454233" lon="53.2137400"><time>2025-12-27T12:54:16.103</time></trkpt><trkpt lat="56.8454117" lon="53.2136567"><time>2025-12-27T12:54:19.087</time></trkpt><trkpt lat="56.8453767" lon="53.2134817"><time>2025-12-27T12:54:25.100</time></trkpt><trkpt lat="56.8453717" lon="53.2135667"><time>2025-12-27T12:54:35.097</time></trkpt><trkpt lat="56.8453433" lon="53.2134417"><time>2025-12-27T12:55:10.107</time></trkpt><trkpt lat="56.8452967" lon="53.2135217"><time>2025-12-27T12:56:08.107</time></trkpt><trkpt lat="56.8452867" lon="53.2133583"><time>2025-12-27T12:56:39.097</time></trkpt><trkpt lat="56.8452233" lon="53.2133717"><time>2025-12-27T12:59:00.103</time></trkpt><trkpt lat="56.8452633" lon="53.2134150"><time>2025-12-27T13:00:02.103</time></trkpt><trkpt lat="56.8452417" lon="53.2134883"><time>2025-12-27T13:00:10.090</time></trkpt><trkpt lat="56.8453067" lon="53.2135200"><time>2025-12-27T13:00:20.087</time></trkpt><trkpt lat="56.8453750" lon="53.2136150"><time>2025-12-27T13:00:22.073</time></trkpt><trkpt lat="56.8454633" lon="53.2137417"><time>2025-12-27T13:00:24.107</time></trkpt><trkpt lat="56.8455150" lon="53.2138033"><time>2025-12-27T13:00:26.053</time></trkpt><trkpt lat="56.8455583" lon="53.2138350"><time>2025-12-27T13:00:29.083</time></trkpt><trkpt lat="56.8456083" lon="53.2138267"><time>2025-12-27T13:00:41.113</time></trkpt><trkpt lat="56.8456550" lon="53.2139117"><time>2025-12-27T13:00:57.093</time></trkpt><trkpt lat="56.8457033" lon="53.2140183"><time>2025-12-27T13:00:59.150</time></trkpt><trkpt lat="56.8457233" lon="53.2140833"><time>2025-12-27T13:01:00.080</time></trkpt><trkpt lat="56.8457650" lon="53.2142150"><time>2025-12-27T13:01:02.093</time></trkpt><trkpt lat="56.8457883" lon="53.2143283"><time>2025-12-27T13:01:04.077</time></trkpt><trkpt lat="56.8458033" lon="53.2144233"><time>2025-12-27T13:01:06.083</time></trkpt><trkpt lat="56.8458067" lon="53.2143350"><time>2025-12-27T13:01:10.107</time></trkpt><trkpt lat="56.8458233" lon="53.2142483"><time>2025-12-27T13:01:12.080</time></trkpt><trkpt lat="56.8458933" lon="53.2142350"><time>2025-12-27T13:01:15.087</time></trkpt><trkpt lat="56.8459483" lon="53.2142267"><time>2025-12-27T13:01:17.077</time></trkpt><trkpt lat="56.8459950" lon="53.2142067"><time>2025-12-27T13:01:19.093</time></trkpt><trkpt lat="56.8460383" lon="53.2141833"><time>2025-12-27T13:01:21.087</time></trkpt><trkpt lat="56.8460867" lon="53.2141600"><time>2025-12-27T13:01:23.063</time></trkpt><trkpt lat="56.8461283" lon="53.2141200"><time>2025-12-27T13:01:25.087</time></trkpt><trkpt lat="56.8461800" lon="53.2140633"><time>2025-12-27T13:01:28.063</time></trkpt><trkpt lat="56.8462300" lon="53.2139967"><time>2025-12-27T13:01:31.107</time></trkpt><trkpt lat="56.8462417" lon="53.2139717"><time>2025-12-27T13:01:32.090</time></trkpt><trkpt lat="56.8463150" lon="53.2140533"><time>2025-12-27T13:01:36.077</time></trkpt><trkpt lat="56.8463467" lon="53.2141217"><time>2025-12-27T13:01:38.093</time></trkpt><trkpt lat="56.8463817" lon="53.2142317"><time>2025-12-27T13:01:42.090</time></trkpt><trkpt lat="56.8463933" lon="53.2143650"><time>2025-12-27T13:01:44.093</time></trkpt><trkpt lat="56.8464083" lon="53.2144633"><time>2025-12-27T13:01:46.090</time></trkpt><trkpt lat="56.8464200" lon="53.2145500"><time>2025-12-27T13:01:50.093</time></trkpt><trkpt lat="56.8464400" lon="53.2146400"><time>2025-12-27T13:01:55.090</time></trkpt><trkpt lat="56.8464650" lon="53.2147183"><time>2025-12-27T13:01:59.090</time></trkpt><trkpt lat="56.8464617" lon="53.2146100"><time>2025-12-27T13:02:14.087</time></trkpt><trkpt lat="56.8464483" lon="53.2145317"><time>2025-12-27T13:02:16.093</time></trkpt><trkpt lat="56.8464250" lon="53.2144350"><time>2025-12-27T13:02:19.087</time></trkpt><trkpt lat="56.8464117" lon="53.2143500"><time>2025-12-27T13:02:21.083</time></trkpt><trkpt lat="56.8464067" lon="53.2142300"><time>2025-12-27T13:02:24.087</time></trkpt><trkpt lat="56.8463850" lon="53.2141383"><time>2025-12-27T13:02:27.080</time></trkpt><trkpt lat="56.8463333" lon="53.2141117"><time>2025-12-27T13:02:31.060</time></trkpt><trkpt lat="56.8462767" lon="53.2140650"><time>2025-12-27T13:02:34.067</time></trkpt><trkpt lat="56.8462167" lon="53.2140567"><time>2025-12-27T13:02:37.087</time></trkpt><trkpt lat="56.8461667" lon="53.2140750"><time>2025-12-27T13:02:39.107</time></trkpt><trkpt lat="56.8461550" lon="53.2140833"><time>2025-12-27T13:02:40.090</time></trkpt><trkpt lat="56.8461067" lon="53.2141117"><time>2025-12-27T13:02:44.093</time></trkpt><trkpt lat="56.8460583" lon="53.2141383"><time>2025-12-27T13:02:51.090</time></trkpt><trkpt lat="56.8460100" lon="53.2141433"><time>2025-12-27T13:02:53.080</time></trkpt><trkpt lat="56.8459567" lon="53.2141367"><time>2025-12-27T13:02:56.053</time></trkpt><trkpt lat="56.8459067" lon="53.2140950"><time>2025-12-27T13:02:59.073</time></trkpt><trkpt lat="56.8458667" lon="53.2141367"><time>2025-12-27T13:03:02.083</time></trkpt><trkpt lat="56.8458250" lon="53.2141767"><time>2025-12-27T13:03:09.077</time></trkpt><trkpt lat="56.8457867" lon="53.2141200"><time>2025-12-27T13:03:18.090</time></trkpt><trkpt lat="56.8457483" lon="53.2140550"><time>2025-12-27T13:03:20.073</time></trkpt><trkpt lat="56.8456950" lon="53.2139650"><time>2025-12-27T13:03:22.113</time></trkpt><trkpt lat="56.8456583" lon="53.2139133"><time>2025-12-27T13:03:23.090</time></trkpt><trkpt lat="56.8456117" lon="53.2138333"><time>2025-12-27T13:03:25.087</time></trkpt><trkpt lat="56.8455883" lon="53.2137533"><time>2025-12-27T13:03:27.077</time></trkpt><trkpt lat="56.8455883" lon="53.2136500"><time>2025-12-27T13:03:29.083</time></trkpt><trkpt lat="56.8455783" lon="53.2135617"><time>2025-12-27T13:03:31.087</time></trkpt><trkpt lat="56.8455700" lon="53.2134667"><time>2025-12-27T13:03:33.103</time></trkpt><trkpt lat="56.8455733" lon="53.2133550"><time>2025-12-27T13:03:35.053</time></trkpt><trkpt lat="56.8455950" lon="53.2132500"><time>2025-12-27T13:03:38.077</time></trkpt><trkpt lat="56.8456183" lon="53.2131567"><time>2025-12-27T13:03:42.057</time></trkpt><trkpt lat="56.8456500" lon="53.2130767"><time>2025-12-27T13:03:46.053</time></trkpt><trkpt lat="56.8456650" lon="53.2129833"><time>2025-12-27T13:03:49.097</time></trkpt><trkpt lat="56.8456683" lon="53.2128900"><time>2025-12-27T13:03:53.143</time></trkpt><trkpt lat="56.8456667" lon="53.2128633"><time>2025-12-27T13:03:54.077</time></trkpt><trkpt lat="56.8456717" lon="53.2127400"><time>2025-12-27T13:03:57.087</time></trkpt><trkpt lat="56.8456450" lon="53.2126550"><time>2025-12-27T13:03:59.097</time></trkpt><trkpt lat="56.8456150" lon="53.2125717"><time>2025-12-27T13:04:02.077</time></trkpt><trkpt lat="56.8455750" lon="53.2125283"><time>2025-12-27T13:04:04.083</time></trkpt><trkpt lat="56.8455200" lon="53.2124850"><time>2025-12-27T13:04:06.087</time></trkpt><trkpt lat="56.8454683" lon="53.2124567"><time>2025-12-27T13:04:08.087</time></trkpt><trkpt lat="56.8454133" lon="53.2124667"><time>2025-12-27T13:04:11.087</time></trkpt><trkpt lat="56.8453700" lon="53.2124450"><time>2025-12-27T13:04:14.073</time></trkpt><trkpt lat="56.8453183" lon="53.2124433"><time>2025-12-27T13:04:19.080</time></trkpt><trkpt lat="56.8452567" lon="53.2124833"><time>2025-12-27T13:04:22.060</time></trkpt><trkpt lat="56.8452067" lon="53.2125333"><time>2025-12-27T13:04:24.077</time></trkpt><trkpt lat="56.8451533" lon="53.2125567"><time>2025-12-27T13:04:27.067</time></trkpt><trkpt lat="56.8451050" lon="53.2125417"><time>2025-12-27T13:04:30.070</time></trkpt><trkpt lat="56.8450500" lon="53.2124833"><time>2025-12-27T13:04:36.097</time></trkpt><trkpt lat="56.8450050" lon="53.2124717"><time>2025-12-27T13:04:38.093</time></trkpt><trkpt lat="56.8449533" lon="53.2124583"><time>2025-12-27T13:04:40.097</time></trkpt><trkpt lat="56.8449067" lon="53.2124183"><time>2025-12-27T13:04:42.097</time></trkpt><trkpt lat="56.8448533" lon="53.2123700"><time>2025-12-27T13:04:44.077</time></trkpt><trkpt lat="56.8447950" lon="53.2123317"><time>2025-12-27T13:04:46.080</time></trkpt><trkpt lat="56.8447483" lon="53.2123050"><time>2025-12-27T13:04:48.090</time></trkpt><trkpt lat="56.8447083" lon="53.2122667"><time>2025-12-27T13:04:50.120</time></trkpt><trkpt lat="56.8446900" lon="53.2122500"><time>2025-12-27T13:04:51.077</time></trkpt><trkpt lat="56.8446433" lon="53.2122067"><time>2025-12-27T13:04:53.083</time></trkpt><trkpt lat="56.8446000" lon="53.2121617"><time>2025-12-27T13:04:55.087</time></trkpt><trkpt lat="56.8445533" lon="53.2121267"><time>2025-12-27T13:04:57.090</time></trkpt><trkpt lat="56.8445100" lon="53.2120767"><time>2025-12-27T13:04:59.090</time></trkpt><trkpt lat="56.8444600" lon="53.2120400"><time>2025-12-27T13:05:01.087</time></trkpt><trkpt lat="56.8444233" lon="53.2119917"><time>2025-12-27T13:05:03.087</time></trkpt><trkpt lat="56.8443667" lon="53.2119167"><time>2025-12-27T13:05:06.090</time></trkpt><trkpt lat="56.8443200" lon="53.2118550"><time>2025-12-27T13:05:08.087</time></trkpt><trkpt lat="56.8442700" lon="53.2117983"><time>2025-12-27T13:05:10.087</time></trkpt><trkpt lat="56.8442217" lon="53.2117800"><time>2025-12-27T13:05:12.093</time></trkpt><trkpt lat="56.8441683" lon="53.2117767"><time>2025-12-27T13:05:15.097</time></trkpt><trkpt lat="56.8441217" lon="53.2117883"><time>2025-12-27T13:05:18.050</time></trkpt><trkpt lat="56.8440783" lon="53.2118283"><time>2025-12-27T13:05:23.093</time></trkpt><trkpt lat="56.8440150" lon="53.2118233"><time>2025-12-27T13:05:27.077</time></trkpt><trkpt lat="56.8439583" lon="53.2118367"><time>2025-12-27T13:05:29.083</time></trkpt><trkpt lat="56.8439133" lon="53.2118533"><time>2025-12-27T13:05:31.047</time></trkpt><trkpt lat="56.8438683" lon="53.2118850"><time>2025-12-27T13:05:34.077</time></trkpt><trkpt lat="56.8438217" lon="53.2118650"><time>2025-12-27T13:05:39.093</time></trkpt><trkpt lat="56.8437767" lon="53.2118350"><time>2025-12-27T13:05:44.133</time></trkpt><trkpt lat="56.8437633" lon="53.2118317"><time>2025-12-27T13:05:45.087</time></trkpt><trkpt lat="56.8437233" lon="53.2118900"><time>2025-12-27T13:05:56.057</time></trkpt><trkpt lat="56.8436967" lon="53.2118200"><time>2025-12-27T13:06:03.083</time></trkpt><trkpt lat="56.8436350" lon="53.2118000"><time>2025-12-27T13:06:06.090</time></trkpt><trkpt lat="56.8435500" lon="53.2117983"><time>2025-12-27T13:06:08.093</time></trkpt><trkpt lat="56.8434800" lon="53.2118017"><time>2025-12-27T13:06:10.057</time></trkpt><trkpt lat="56.8434167" lon="53.2118017"><time>2025-12-27T13:06:12.087</time></trkpt><trkpt lat="56.8433633" lon="53.2118300"><time>2025-12-27T13:06:14.093</time></trkpt><trkpt lat="56.8433050" lon="53.2118400"><time>2025-12-27T13:06:16.083</time></trkpt><trkpt lat="56.8432533" lon="53.2118650"><time>2025-12-27T13:06:18.093</time></trkpt><trkpt lat="56.8431933" lon="53.2118800"><time>2025-12-27T13:06:20.083</time></trkpt><trkpt lat="56.8431383" lon="53.2118767"><time>2025-12-27T13:06:22.087</time></trkpt><trkpt lat="56.8430900" lon="53.2118433"><time>2025-12-27T13:06:25.050</time></trkpt><trkpt lat="56.8430417" lon="53.2118150"><time>2025-12-27T13:06:29.087</time></trkpt><trkpt lat="56.8430133" lon="53.2117383"><time>2025-12-27T13:06:35.073</time></trkpt><trkpt lat="56.8429950" lon="53.2116533"><time>2025-12-27T13:06:41.087</time></trkpt><trkpt lat="56.8429617" lon="53.2115633"><time>2025-12-27T13:06:44.093</time></trkpt><trkpt lat="56.8429317" lon="53.2114733"><time>2025-12-27T13:06:46.087</time></trkpt><trkpt lat="56.8429317" lon="53.2113683"><time>2025-12-27T13:06:48.090</time></trkpt><trkpt lat="56.8429533" lon="53.2112833"><time>2025-12-27T13:06:50.077</time></trkpt><trkpt lat="56.8429350" lon="53.2111667"><time>2025-12-27T13:06:53.090</time></trkpt><trkpt lat="56.8429133" lon="53.2110867"><time>2025-12-27T13:06:55.093</time></trkpt><trkpt lat="56.8428900" lon="53.2109967"><time>2025-12-27T13:06:57.077</time></trkpt><trkpt lat="56.8428750" lon="53.2108817"><time>2025-12-27T13:07:00.097</time></trkpt><trkpt lat="56.8428717" lon="53.2107617"><time>2025-12-27T13:07:03.090</time></trkpt><trkpt lat="56.8428683" lon="53.2106750"><time>2025-12-27T13:07:05.090</time></trkpt><trkpt lat="56.8428633" lon="53.2105783"><time>2025-12-27T13:07:08.083</time></trkpt><trkpt lat="56.8428300" lon="53.2105150"><time>2025-12-27T13:07:10.050</time></trkpt><trkpt lat="56.8427933" lon="53.2104200"><time>2025-12-27T13:07:13.097</time></trkpt><trkpt lat="56.8427600" lon="53.2103583"><time>2025-12-27T13:07:16.087</time></trkpt><trkpt lat="56.8427333" lon="53.2102717"><time>2025-12-27T13:07:20.097</time></trkpt><trkpt lat="56.8427067" lon="53.2101967"><time>2025-12-27T13:07:23.050</time></trkpt><trkpt lat="56.8426983" lon="53.2100900"><time>2025-12-27T13:07:27.093</time></trkpt><trkpt lat="56.8426967" lon="53.2099883"><time>2025-12-27T13:07:31.087</time></trkpt><trkpt lat="56.8426967" lon="53.2098800"><time>2025-12-27T13:07:34.097</time></trkpt><trkpt lat="56.8426800" lon="53.2097917"><time>2025-12-27T13:07:38.093</time></trkpt><trkpt lat="56.8426533" lon="53.2097050"><time>2025-12-27T13:07:41.093</time></trkpt><trkpt lat="56.8426283" lon="53.2096117"><time>2025-12-27T13:07:44.080</time></trkpt><trkpt lat="56.8425767" lon="53.2096033"><time>2025-12-27T13:07:49.083</time></trkpt><trkpt lat="56.8425283" lon="53.2096417"><time>2025-12-27T13:07:54.087</time></trkpt><trkpt lat="56.8424867" lon="53.2095917"><time>2025-12-27T13:07:59.080</time></trkpt><trkpt lat="56.8424583" lon="53.2095250"><time>2025-12-27T13:08:02.063</time></trkpt><trkpt lat="56.8424133" lon="53.2095317"><time>2025-12-27T13:08:05.077</time></trkpt><trkpt lat="56.8423583" lon="53.2095400"><time>2025-12-27T13:08:09.090</time></trkpt><trkpt lat="56.8423050" lon="53.2095217"><time>2025-12-27T13:08:13.093</time></trkpt><trkpt lat="56.8422567" lon="53.2095383"><time>2025-12-27T13:08:18.093</time></trkpt><trkpt lat="56.8422067" lon="53.2095350"><time>2025-12-27T13:08:21.067</time></trkpt><trkpt lat="56.8421583" lon="53.2095750"><time>2025-12-27T13:08:25.080</time></trkpt><trkpt lat="56.8421133" lon="53.2096067"><time>2025-12-27T13:08:28.070</time></trkpt><trkpt lat="56.8420667" lon="53.2096033"><time>2025-12-27T13:08:31.053</time></trkpt><trkpt lat="56.8420200" lon="53.2095833"><time>2025-12-27T13:08:34.070</time></trkpt><trkpt lat="56.8419583" lon="53.2095917"><time>2025-12-27T13:08:37.090</time></trkpt><trkpt lat="56.8419050" lon="53.2096083"><time>2025-12-27T13:08:39.097</time></trkpt><trkpt lat="56.8418667" lon="53.2095633"><time>2025-12-27T13:08:42.070</time></trkpt><trkpt lat="56.8418650" lon="53.2094433"><time>2025-12-27T13:08:45.083</time></trkpt><trkpt lat="56.8418600" lon="53.2093450"><time>2025-12-27T13:08:48.093</time></trkpt><trkpt lat="56.8418500" lon="53.2092183"><time>2025-12-27T13:08:51.087</time></trkpt><trkpt lat="56.8418450" lon="53.2091183"><time>2025-12-27T13:08:53.067</time></trkpt><trkpt lat="56.8418617" lon="53.2090267"><time>2025-12-27T13:08:55.087</time></trkpt><trkpt lat="56.8418817" lon="53.2089333"><time>2025-12-27T13:08:57.083</time></trkpt><trkpt lat="56.8418750" lon="53.2088133"><time>2025-12-27T13:09:00.090</time></trkpt><trkpt lat="56.8418583" lon="53.2087217"><time>2025-12-27T13:09:04.100</time></trkpt><trkpt lat="56.8418583" lon="53.2087000"><time>2025-12-27T13:09:05.057</time></trkpt><trkpt lat="56.8418633" lon="53.2086150"><time>2025-12-27T13:09:08.097</time></trkpt><trkpt lat="56.8418767" lon="53.2085300"><time>2025-12-27T13:09:11.090</time></trkpt><trkpt lat="56.8419000" lon="53.2084367"><time>2025-12-27T13:09:15.090</time></trkpt><trkpt lat="56.8418817" lon="53.2083533"><time>2025-12-27T13:09:18.090</time></trkpt><trkpt lat="56.8418900" lon="53.2082683"><time>2025-12-27T13:09:26.087</time></trkpt><trkpt lat="56.8419250" lon="53.2082017"><time>2025-12-27T13:09:31.093</time></trkpt><trkpt lat="56.8419600" lon="53.2081333"><time>2025-12-27T13:09:35.087</time></trkpt><trkpt lat="56.8419750" lon="53.2080233"><time>2025-12-27T13:09:38.087</time></trkpt><trkpt lat="56.8419617" lon="53.2079433"><time>2025-12-27T13:09:40.087</time></trkpt><trkpt lat="56.8419567" lon="53.2078433"><time>2025-12-27T13:09:43.077</time></trkpt><trkpt lat="56.8419267" lon="53.2077583"><time>2025-12-27T13:09:46.050</time></trkpt><trkpt lat="56.8418650" lon="53.2076883"><time>2025-12-27T13:09:49.103</time></trkpt><trkpt lat="56.8418150" lon="53.2076517"><time>2025-12-27T13:09:51.097</time></trkpt><trkpt lat="56.8417450" lon="53.2076150"><time>2025-12-27T13:09:53.060</time></trkpt><trkpt lat="56.8416883" lon="53.2076133"><time>2025-12-27T13:09:55.087</time></trkpt><trkpt lat="56.8416417" lon="53.2076283"><time>2025-12-27T13:09:57.073</time></trkpt><trkpt lat="56.8415950" lon="53.2076117"><time>2025-12-27T13:09:59.067</time></trkpt><trkpt lat="56.8415467" lon="53.2076317"><time>2025-12-27T13:10:03.053</time></trkpt><trkpt lat="56.8415017" lon="53.2076817"><time>2025-12-27T13:10:07.093</time></trkpt><trkpt lat="56.8414500" lon="53.2076783"><time>2025-12-27T13:10:10.050</time></trkpt><trkpt lat="56.8414050" lon="53.2076767"><time>2025-12-27T13:10:13.090</time></trkpt><trkpt lat="56.8413600" lon="53.2076400"><time>2025-12-27T13:10:16.090</time></trkpt><trkpt lat="56.8413167" lon="53.2076167"><time>2025-12-27T13:10:19.090</time></trkpt><trkpt lat="56.8412733" lon="53.2075833"><time>2025-12-27T13:10:23.057</time></trkpt><trkpt lat="56.8412400" lon="53.2075250"><time>2025-12-27T13:10:25.083</time></trkpt><trkpt lat="56.8411950" lon="53.2074850"><time>2025-12-27T13:10:28.113</time></trkpt><trkpt lat="56.8411733" lon="53.2074900"><time>2025-12-27T13:10:29.080</time></trkpt><trkpt lat="56.8411167" lon="53.2075133"><time>2025-12-27T13:10:31.087</time></trkpt><trkpt lat="56.8410583" lon="53.2075200"><time>2025-12-27T13:10:33.080</time></trkpt><trkpt lat="56.8410033" lon="53.2075383"><time>2025-12-27T13:10:35.083</time></trkpt><trkpt lat="56.8409550" lon="53.2075550"><time>2025-12-27T13:10:37.083</time></trkpt><trkpt lat="56.8409000" lon="53.2075767"><time>2025-12-27T13:10:40.090</time></trkpt><trkpt lat="56.8408517" lon="53.2075800"><time>2025-12-27T13:10:45.087</time></trkpt><trkpt lat="56.8408033" lon="53.2075517"><time>2025-12-27T13:10:50.070</time></trkpt><trkpt lat="56.8407483" lon="53.2075333"><time>2025-12-27T13:10:53.093</time></trkpt><trkpt lat="56.8407000" lon="53.2075200"><time>2025-12-27T13:10:56.087</time></trkpt><trkpt lat="56.8406567" lon="53.2074567"><time>2025-12-27T13:11:00.107</time></trkpt><trkpt lat="56.8406450" lon="53.2074533"><time>2025-12-27T13:11:01.087</time></trkpt><trkpt lat="56.8406033" lon="53.2074067"><time>2025-12-27T13:11:08.087</time></trkpt><trkpt lat="56.8405550" lon="53.2073700"><time>2025-12-27T13:11:12.087</time></trkpt><trkpt lat="56.8405167" lon="53.2073217"><time>2025-12-27T13:11:15.080</time></trkpt><trkpt lat="56.8405033" lon="53.2072400"><time>2025-12-27T13:11:19.090</time></trkpt><trkpt lat="56.8404817" lon="53.2071483"><time>2025-12-27T13:11:23.140</time></trkpt><trkpt lat="56.8404817" lon="53.2071483"><time>2025-12-27T13:11:23.653</time></trkpt><trkpt lat="56.8405033" lon="53.2072283"><time>2025-12-27T13:12:07.117</time></trkpt><trkpt lat="56.8405067" lon="53.2072500"><time>2025-12-27T13:12:08.050</time></trkpt><trkpt lat="56.8404833" lon="53.2071733"><time>2025-12-27T13:12:15.087</time></trkpt><trkpt lat="56.8404700" lon="53.2070700"><time>2025-12-27T13:12:17.087</time></trkpt><trkpt lat="56.8404733" lon="53.2069467"><time>2025-12-27T13:12:19.087</time></trkpt><trkpt lat="56.8404717" lon="53.2068417"><time>2025-12-27T13:12:21.080</time></trkpt><trkpt lat="56.8404600" lon="53.2067400"><time>2025-12-27T13:12:23.077</time></trkpt><trkpt lat="56.8404533" lon="53.2066367"><time>2025-12-27T13:12:25.083</time></trkpt><trkpt lat="56.8404533" lon="53.2065333"><time>2025-12-27T13:12:28.073</time></trkpt><trkpt lat="56.8404467" lon="53.2064317"><time>2025-12-27T13:12:31.077</time></trkpt><trkpt lat="56.8404400" lon="53.2063233"><time>2025-12-27T13:12:34.083</time></trkpt><trkpt lat="56.8404400" lon="53.2062400"><time>2025-12-27T13:12:36.097</time></trkpt><trkpt lat="56.8404383" lon="53.2061400"><time>2025-12-27T13:12:38.087</time></trkpt><trkpt lat="56.8404317" lon="53.2060500"><time>2025-12-27T13:12:40.080</time></trkpt><trkpt lat="56.8404283" lon="53.2059300"><time>2025-12-27T13:12:43.073</time></trkpt><trkpt lat="56.8404167" lon="53.2058383"><time>2025-12-27T13:12:46.063</time></trkpt><trkpt lat="56.8404000" lon="53.2057617"><time>2025-12-27T13:12:49.080</time></trkpt><trkpt lat="56.8403733" lon="53.2056817"><time>2025-12-27T13:12:53.087</time></trkpt><trkpt lat="56.8403817" lon="53.2055833"><time>2025-12-27T13:12:56.100</time></trkpt><trkpt lat="56.8403667" lon="53.2054967"><time>2025-12-27T13:12:58.083</time></trkpt><trkpt lat="56.8403617" lon="53.2055783"><time>2025-12-27T13:13:45.083</time></trkpt><trkpt lat="56.8403733" lon="53.2056900"><time>2025-12-27T13:13:48.090</time></trkpt><trkpt lat="56.8403867" lon="53.2057867"><time>2025-12-27T13:13:51.070</time></trkpt><trkpt lat="56.8403967" lon="53.2058783"><time>2025-12-27T13:13:54.083</time></trkpt><trkpt lat="56.8403900" lon="53.2059833"><time>2025-12-27T13:13:59.087</time></trkpt><trkpt lat="56.8403867" lon="53.2060750"><time>2025-12-27T13:14:02.093</time></trkpt><trkpt lat="56.8403883" lon="53.2061683"><time>2025-12-27T13:14:05.090</time></trkpt><trkpt lat="56.8403817" lon="53.2062617"><time>2025-12-27T13:14:14.083</time></trkpt><trkpt lat="56.8403917" lon="53.2063617"><time>2025-12-27T13:14:19.093</time></trkpt><trkpt lat="56.8403967" lon="53.2064567"><time>2025-12-27T13:14:26.087</time></trkpt><trkpt lat="56.8404000" lon="53.2065533"><time>2025-12-27T13:14:28.090</time></trkpt><trkpt lat="56.8404083" lon="53.2066517"><time>2025-12-27T13:14:30.080</time></trkpt><trkpt lat="56.8404233" lon="53.2067317"><time>2025-12-27T13:14:32.073</time></trkpt><trkpt lat="56.8404317" lon="53.2068300"><time>2025-12-27T13:14:35.090</time></trkpt><trkpt lat="56.8404050" lon="53.2069050"><time>2025-12-27T13:14:38.093</time></trkpt><trkpt lat="56.8404517" lon="53.2068633"><time>2025-12-27T13:14:58.093</time></trkpt><trkpt lat="56.8404683" lon="53.2067833"><time>2025-12-27T13:15:02.087</time></trkpt><trkpt lat="56.8404517" lon="53.2066917"><time>2025-12-27T13:15:05.077</time></trkpt><trkpt lat="56.8404533" lon="53.2065933"><time>2025-12-27T13:15:10.067</time></trkpt><trkpt lat="56.8404500" lon="53.2065000"><time>2025-12-27T13:15:14.090</time></trkpt><trkpt lat="56.8404400" lon="53.2063983"><time>2025-12-27T13:15:16.083</time></trkpt><trkpt lat="56.8404417" lon="53.2062917"><time>2025-12-27T13:15:18.087</time></trkpt><trkpt lat="56.8404417" lon="53.2061983"><time>2025-12-27T13:15:20.050</time></trkpt><trkpt lat="56.8404333" lon="53.2060833"><time>2025-12-27T13:15:23.080</time></trkpt><trkpt lat="56.8404250" lon="53.2059883"><time>2025-12-27T13:15:25.080</time></trkpt><trkpt lat="56.8404083" lon="53.2059017"><time>2025-12-27T13:15:29.080</time></trkpt><trkpt lat="56.8403950" lon="53.2058150"><time>2025-12-27T13:15:33.083</time></trkpt><trkpt lat="56.8403833" lon="53.2057333"><time>2025-12-27T13:15:36.093</time></trkpt><trkpt lat="56.8403783" lon="53.2056150"><time>2025-12-27T13:15:39.087</time></trkpt><trkpt lat="56.8403733" lon="53.2055300"><time>2025-12-27T13:15:41.087</time></trkpt><trkpt lat="56.8403450" lon="53.2054600"><time>2025-12-27T13:15:43.083</time></trkpt><trkpt lat="56.8404017" lon="53.2053983"><time>2025-12-27T13:15:50.090</time></trkpt><trkpt lat="56.8404333" lon="53.2053317"><time>2025-12-27T13:15:53.100</time></trkpt><trkpt lat="56.8404417" lon="53.2052500"><time>2025-12-27T13:15:56.097</time></trkpt><trkpt lat="56.8404433" lon="53.2051500"><time>2025-12-27T13:16:00.097</time></trkpt><trkpt lat="56.8404450" lon="53.2050567"><time>2025-12-27T13:16:03.093</time></trkpt><trkpt lat="56.8404233" lon="53.2049550"><time>2025-12-27T13:16:06.053</time></trkpt><trkpt lat="56.8403700" lon="53.2049083"><time>2025-12-27T13:16:08.087</time></trkpt><trkpt lat="56.8403283" lon="53.2048483"><time>2025-12-27T13:16:10.073</time></trkpt><trkpt lat="56.8402783" lon="53.2048233"><time>2025-12-27T13:16:12.077</time></trkpt><trkpt lat="56.8402317" lon="53.2047900"><time>2025-12-27T13:16:15.057</time></trkpt><trkpt lat="56.8401800" lon="53.2048067"><time>2025-12-27T13:16:18.093</time></trkpt><trkpt lat="56.8401333" lon="53.2048100"><time>2025-12-27T13:16:20.103</time></trkpt><trkpt lat="56.8400700" lon="53.2048017"><time>2025-12-27T13:16:22.080</time></trkpt><trkpt lat="56.8400083" lon="53.2048200"><time>2025-12-27T13:16:24.090</time></trkpt><trkpt lat="56.8399417" lon="53.2048183"><time>2025-12-27T13:16:26.087</time></trkpt><trkpt lat="56.8398817" lon="53.2048200"><time>2025-12-27T13:16:28.087</time></trkpt><trkpt lat="56.8398283" lon="53.2048217"><time>2025-12-27T13:16:30.077</time></trkpt><trkpt lat="56.8397683" lon="53.2048383"><time>2025-12-27T13:16:32.097</time></trkpt><trkpt lat="56.8397117" lon="53.2048517"><time>2025-12-27T13:16:34.087</time></trkpt><trkpt lat="56.8396567" lon="53.2048633"><time>2025-12-27T13:16:36.107</time></trkpt><trkpt lat="56.8396050" lon="53.2048617"><time>2025-12-27T13:16:38.097</time></trkpt><trkpt lat="56.8395417" lon="53.2048783"><time>2025-12-27T13:16:40.090</time></trkpt><trkpt lat="56.8394850" lon="53.2048933"><time>2025-12-27T13:16:42.087</time></trkpt><trkpt lat="56.8394383" lon="53.2049050"><time>2025-12-27T13:16:44.083</time></trkpt><trkpt lat="56.8393783" lon="53.2048950"><time>2025-12-27T13:16:46.083</time></trkpt><trkpt lat="56.8393283" lon="53.2048983"><time>2025-12-27T13:16:48.093</time></trkpt><trkpt lat="56.8392750" lon="53.2049117"><time>2025-12-27T13:16:50.097</time></trkpt><trkpt lat="56.8392300" lon="53.2049100"><time>2025-12-27T13:16:52.087</time></trkpt><trkpt lat="56.8391683" lon="53.2049433"><time>2025-12-27T13:16:55.073</time></trkpt><trkpt lat="56.8391200" lon="53.2049450"><time>2025-12-27T13:16:57.090</time></trkpt><trkpt lat="56.8390717" lon="53.2049367"><time>2025-12-27T13:16:59.080</time></trkpt><trkpt lat="56.8390217" lon="53.2049350"><time>2025-12-27T13:17:01.080</time></trkpt><trkpt lat="56.8389683" lon="53.2049183"><time>2025-12-27T13:17:03.087</time></trkpt><trkpt lat="56.8389183" lon="53.2049117"><time>2025-12-27T13:17:08.080</time></trkpt><trkpt lat="56.8388650" lon="53.2048967"><time>2025-12-27T13:17:12.080</time></trkpt><trkpt lat="56.8388133" lon="53.2049183"><time>2025-12-27T13:17:16.087</time></trkpt><trkpt lat="56.8387433" lon="53.2049167"><time>2025-12-27T13:17:18.097</time></trkpt><trkpt lat="56.8386783" lon="53.2049400"><time>2025-12-27T13:17:20.087</time></trkpt><trkpt lat="56.8386267" lon="53.2049400"><time>2025-12-27T13:17:22.093</time></trkpt><trkpt lat="56.8385767" lon="53.2049450"><time>2025-12-27T13:17:24.080</time></trkpt><trkpt lat="56.8385217" lon="53.2049483"><time>2025-12-27T13:17:26.083</time></trkpt><trkpt lat="56.8384717" lon="53.2049650"><time>2025-12-27T13:17:28.083</time></trkpt><trkpt lat="56.8384217" lon="53.2049983"><time>2025-12-27T13:17:30.087</time></trkpt><trkpt lat="56.8383533" lon="53.2050300"><time>2025-12-27T13:17:32.087</time></trkpt><trkpt lat="56.8382917" lon="53.2050483"><time>2025-12-27T13:17:34.087</time></trkpt><trkpt lat="56.8382367" lon="53.2050800"><time>2025-12-27T13:17:37.103</time></trkpt><trkpt lat="56.8381833" lon="53.2050950"><time>2025-12-27T13:17:43.087</time></trkpt><trkpt lat="56.8381350" lon="53.2050967"><time>2025-12-27T13:17:48.087</time></trkpt><trkpt lat="56.8380783" lon="53.2051067"><time>2025-12-27T13:17:54.077</time></trkpt><trkpt lat="56.8380200" lon="53.2051183"><time>2025-12-27T13:17:57.087</time></trkpt><trkpt lat="56.8379567" lon="53.2051317"><time>2025-12-27T13:18:00.083</time></trkpt><trkpt lat="56.8379117" lon="53.2051333"><time>2025-12-27T13:18:02.093</time></trkpt><trkpt lat="56.8378550" lon="53.2051600"><time>2025-12-27T13:18:05.083</time></trkpt><trkpt lat="56.8378050" lon="53.2051700"><time>2025-12-27T13:18:09.097</time></trkpt><trkpt lat="56.8377550" lon="53.2051817"><time>2025-12-27T13:18:13.093</time></trkpt><trkpt lat="56.8376950" lon="53.2051800"><time>2025-12-27T13:18:18.077</time></trkpt><trkpt lat="56.8376433" lon="53.2051967"><time>2025-12-27T13:18:20.083</time></trkpt><trkpt lat="56.8375967" lon="53.2052250"><time>2025-12-27T13:18:22.083</time></trkpt><trkpt lat="56.8375517" lon="53.2052383"><time>2025-12-27T13:18:24.090</time></trkpt><trkpt lat="56.8374967" lon="53.2052233"><time>2025-12-27T13:18:27.087</time></trkpt><trkpt lat="56.8374433" lon="53.2052083"><time>2025-12-27T13:18:30.087</time></trkpt><trkpt lat="56.8373800" lon="53.2052217"><time>2025-12-27T13:18:54.100</time></trkpt><trkpt lat="56.8373117" lon="53.2052483"><time>2025-12-27T13:18:56.090</time></trkpt><trkpt lat="56.8372550" lon="53.2052617"><time>2025-12-27T13:18:58.097</time></trkpt><trkpt lat="56.8371867" lon="53.2052683"><time>2025-12-27T13:19:00.080</time></trkpt><trkpt lat="56.8371267" lon="53.2052433"><time>2025-12-27T13:19:02.090</time></trkpt><trkpt lat="56.8371100" lon="53.2051350"><time>2025-12-27T13:19:05.080</time></trkpt><trkpt lat="56.8371267" lon="53.2050300"><time>2025-12-27T13:19:07.087</time></trkpt><trkpt lat="56.8371283" lon="53.2049117"><time>2025-12-27T13:19:09.087</time></trkpt><trkpt lat="56.8371183" lon="53.2048133"><time>2025-12-27T13:19:11.090</time></trkpt><trkpt lat="56.8371083" lon="53.2047283"><time>2025-12-27T13:19:13.087</time></trkpt><trkpt lat="56.8371100" lon="53.2046317"><time>2025-12-27T13:19:15.080</time></trkpt><trkpt lat="56.8371117" lon="53.2045350"><time>2025-12-27T13:19:17.080</time></trkpt><trkpt lat="56.8371167" lon="53.2044433"><time>2025-12-27T13:19:19.083</time></trkpt><trkpt lat="56.8371117" lon="53.2043483"><time>2025-12-27T13:19:21.097</time></trkpt><trkpt lat="56.8371117" lon="53.2042583"><time>2025-12-27T13:19:23.083</time></trkpt><trkpt lat="56.8371033" lon="53.2041383"><time>2025-12-27T13:19:26.083</time></trkpt><trkpt lat="56.8370933" lon="53.2040033"><time>2025-12-27T13:19:29.053</time></trkpt><trkpt lat="56.8370767" lon="53.2038833"><time>2025-12-27T13:19:32.083</time></trkpt><trkpt lat="56.8370733" lon="53.2037983"><time>2025-12-27T13:19:34.080</time></trkpt><trkpt lat="56.8370650" lon="53.2037017"><time>2025-12-27T13:19:36.097</time></trkpt><trkpt lat="56.8370667" lon="53.2036083"><time>2025-12-27T13:19:38.087</time></trkpt><trkpt lat="56.8370583" lon="53.2034917"><time>2025-12-27T13:19:41.080</time></trkpt><trkpt lat="56.8370550" lon="53.2033933"><time>2025-12-27T13:19:43.090</time></trkpt><trkpt lat="56.8370450" lon="53.2033000"><time>2025-12-27T13:19:45.090</time></trkpt><trkpt lat="56.8370400" lon="53.2031983"><time>2025-12-27T13:19:47.097</time></trkpt><trkpt lat="56.8370283" lon="53.2031150"><time>2025-12-27T13:19:49.090</time></trkpt><trkpt lat="56.8370233" lon="53.2030333"><time>2025-12-27T13:19:51.097</time></trkpt><trkpt lat="56.8370117" lon="53.2029417"><time>2025-12-27T13:19:53.083</time></trkpt><trkpt lat="56.8369967" lon="53.2028583"><time>2025-12-27T13:19:55.077</time></trkpt><trkpt lat="56.8369783" lon="53.2027600"><time>2025-12-27T13:19:57.087</time></trkpt><trkpt lat="56.8369800" lon="53.2026617"><time>2025-12-27T13:19:59.087</time></trkpt><trkpt lat="56.8369867" lon="53.2025633"><time>2025-12-27T13:20:01.067</time></trkpt><trkpt lat="56.8369850" lon="53.2026683"><time>2025-12-27T13:20:09.093</time></trkpt><trkpt lat="56.8369817" lon="53.2027783"><time>2025-12-27T13:20:13.080</time></trkpt><trkpt lat="56.8369900" lon="53.2028700"><time>2025-12-27T13:20:15.090</time></trkpt><trkpt lat="56.8370083" lon="53.2029600"><time>2025-12-27T13:20:18.060</time></trkpt><trkpt lat="56.8370350" lon="53.2030467"><time>2025-12-27T13:20:20.093</time></trkpt><trkpt lat="56.8370283" lon="53.2031667"><time>2025-12-27T13:20:22.077</time></trkpt><trkpt lat="56.8370333" lon="53.2032600"><time>2025-12-27T13:20:25.087</time></trkpt><trkpt lat="56.8370183" lon="53.2033417"><time>2025-12-27T13:20:28.083</time></trkpt><trkpt lat="56.8370150" lon="53.2034300"><time>2025-12-27T13:20:35.090</time></trkpt><trkpt lat="56.8369783" lon="53.2035067"><time>2025-12-27T13:20:40.093</time></trkpt><trkpt lat="56.8369183" lon="53.2035367"><time>2025-12-27T13:20:44.067</time></trkpt><trkpt lat="56.8368650" lon="53.2035533"><time>2025-12-27T13:20:46.087</time></trkpt><trkpt lat="56.8368083" lon="53.2035600"><time>2025-12-27T13:20:48.087</time></trkpt><trkpt lat="56.8367550" lon="53.2035717"><time>2025-12-27T13:20:50.090</time></trkpt><trkpt lat="56.8367050" lon="53.2035800"><time>2025-12-27T13:20:52.103</time></trkpt><trkpt lat="56.8366583" lon="53.2035850"><time>2025-12-27T13:20:54.087</time></trkpt><trkpt lat="56.8366067" lon="53.2035967"><time>2025-12-27T13:20:56.080</time></trkpt><trkpt lat="56.8365583" lon="53.2036133"><time>2025-12-27T13:21:00.087</time></trkpt><trkpt lat="56.8365150" lon="53.2035867"><time>2025-12-27T13:21:04.097</time></trkpt><trkpt lat="56.8364617" lon="53.2035733"><time>2025-12-27T13:21:08.100</time></trkpt><trkpt lat="56.8364150" lon="53.2036000"><time>2025-12-27T13:21:12.097</time></trkpt><trkpt lat="56.8363633" lon="53.2036050"><time>2025-12-27T13:21:16.087</time></trkpt><trkpt lat="56.8363150" lon="53.2036183"><time>2025-12-27T13:21:21.093</time></trkpt><trkpt lat="56.8362583" lon="53.2036450"><time>2025-12-27T13:21:24.087</time></trkpt><trkpt lat="56.8362033" lon="53.2036600"><time>2025-12-27T13:21:26.073</time></trkpt><trkpt lat="56.8361583" lon="53.2036667"><time>2025-12-27T13:21:28.077</time></trkpt><trkpt lat="56.8360950" lon="53.2036650"><time>2025-12-27T13:21:31.090</time></trkpt><trkpt lat="56.8360383" lon="53.2036767"><time>2025-12-27T13:21:34.083</time></trkpt><trkpt lat="56.8359733" lon="53.2037117"><time>2025-12-27T13:21:37.087</time></trkpt><trkpt lat="56.8359150" lon="53.2037083"><time>2025-12-27T13:21:39.087</time></trkpt><trkpt lat="56.8358517" lon="53.2037233"><time>2025-12-27T13:21:42.093</time></trkpt><trkpt lat="56.8357950" lon="53.2037683"><time>2025-12-27T13:21:45.090</time></trkpt><trkpt lat="56.8357317" lon="53.2037617"><time>2025-12-27T13:21:48.080</time></trkpt><trkpt lat="56.8356700" lon="53.2037733"><time>2025-12-27T13:21:51.083</time></trkpt><trkpt lat="56.8356150" lon="53.2038167"><time>2025-12-27T13:21:54.077</time></trkpt><trkpt lat="56.8355633" lon="53.2038100"><time>2025-12-27T13:21:57.087</time></trkpt><trkpt lat="56.8355100" lon="53.2038167"><time>2025-12-27T13:22:00.080</time></trkpt><trkpt lat="56.8354433" lon="53.2038267"><time>2025-12-27T13:22:03.073</time></trkpt><trkpt lat="56.8353867" lon="53.2038333"><time>2025-12-27T13:22:06.087</time></trkpt><trkpt lat="56.8353267" lon="53.2038633"><time>2025-12-27T13:22:09.080</time></trkpt><trkpt lat="56.8352800" lon="53.2038650"><time>2025-12-27T13:22:12.077</time></trkpt><trkpt lat="56.8352317" lon="53.2038867"><time>2025-12-27T13:22:15.077</time></trkpt><trkpt lat="56.8351800" lon="53.2039100"><time>2025-12-27T13:22:19.087</time></trkpt><trkpt lat="56.8351250" lon="53.2038867"><time>2025-12-27T13:22:21.077</time></trkpt><trkpt lat="56.8350750" lon="53.2038917"><time>2025-12-27T13:22:23.080</time></trkpt><trkpt lat="56.8350250" lon="53.2039050"><time>2025-12-27T13:22:25.080</time></trkpt><trkpt lat="56.8349750" lon="53.2039183"><time>2025-12-27T13:22:27.087</time></trkpt><trkpt lat="56.8349300" lon="53.2039317"><time>2025-12-27T13:22:29.090</time></trkpt><trkpt lat="56.8348817" lon="53.2039367"><time>2025-12-27T13:22:31.093</time></trkpt><trkpt lat="56.8348350" lon="53.2039500"><time>2025-12-27T13:22:44.137</time></trkpt><trkpt lat="56.8348150" lon="53.2039517"><time>2025-12-27T13:22:45.050</time></trkpt><trkpt lat="56.8347650" lon="53.2039783"><time>2025-12-27T13:22:51.050</time></trkpt><trkpt lat="56.8348117" lon="53.2040033"><time>2025-12-27T13:22:58.087</time></trkpt><trkpt lat="56.8348533" lon="53.2039617"><time>2025-12-27T13:23:01.090</time></trkpt><trkpt lat="56.8348933" lon="53.2039233"><time>2025-12-27T13:23:05.107</time></trkpt><trkpt lat="56.8348983" lon="53.2039233"><time>2025-12-27T13:23:06.090</time></trkpt><trkpt lat="56.8349500" lon="53.2039150"><time>2025-12-27T13:23:12.090</time></trkpt><trkpt lat="56.8349983" lon="53.2038833"><time>2025-12-27T13:23:18.093</time></trkpt><trkpt lat="56.8349450" lon="53.2039167"><time>2025-12-27T13:23:28.050</time></trkpt><trkpt lat="56.8350067" lon="53.2038867"><time>2025-12-27T13:23:48.097</time></trkpt><trkpt lat="56.8350633" lon="53.2038733"><time>2025-12-27T13:23:51.090</time></trkpt><trkpt lat="56.8350167" lon="53.2038750"><time>2025-12-27T13:24:22.090</time></trkpt><trkpt lat="56.8349717" lon="53.2038600"><time>2025-12-27T13:24:30.090</time></trkpt><trkpt lat="56.8350183" lon="53.2038783"><time>2025-12-27T13:24:49.077</time></trkpt><trkpt lat="56.8350633" lon="53.2038383"><time>2025-12-27T13:24:54.090</time></trkpt><trkpt lat="56.8351167" lon="53.2038317"><time>2025-12-27T13:25:00.093</time></trkpt><trkpt lat="56.8351600" lon="53.2038667"><time>2025-12-27T13:25:04.100</time></trkpt><trkpt lat="56.8352050" lon="53.2038633"><time>2025-12-27T13:25:07.090</time></trkpt><trkpt lat="56.8352517" lon="53.2038283"><time>2025-12-27T13:25:21.090</time></trkpt><trkpt lat="56.8353000" lon="53.2038183"><time>2025-12-27T13:25:26.097</time></trkpt><trkpt lat="56.8352483" lon="53.2038417"><time>2025-12-27T13:25:36.090</time></trkpt><trkpt lat="56.8351933" lon="53.2038433"><time>2025-12-27T13:25:39.097</time></trkpt><trkpt lat="56.8351450" lon="53.2038400"><time>2025-12-27T13:25:41.083</time></trkpt><trkpt lat="56.8350917" lon="53.2038583"><time>2025-12-27T13:25:43.090</time></trkpt><trkpt lat="56.8350950" lon="53.2037433"><time>2025-12-27T13:25:53.090</time></trkpt><trkpt lat="56.8351000" lon="53.2036533"><time>2025-12-27T13:25:55.080</time></trkpt><trkpt lat="56.8350867" lon="53.2035750"><time>2025-12-27T13:25:58.097</time></trkpt><trkpt lat="56.8350733" lon="53.2034950"><time>2025-12-27T13:26:15.100</time></trkpt><trkpt lat="56.8350717" lon="53.2033983"><time>2025-12-27T13:26:22.103</time></trkpt><trkpt lat="56.8350550" lon="53.2033117"><time>2025-12-27T13:26:29.093</time></trkpt><trkpt lat="56.8350150" lon="53.2032550"><time>2025-12-27T13:26:34.093</time></trkpt><trkpt lat="56.8350067" lon="53.2031733"><time>2025-12-27T13:26:46.083</time></trkpt><trkpt lat="56.8349667" lon="53.2031283"><time>2025-12-27T13:26:58.093</time></trkpt><trkpt lat="56.8349317" lon="53.2031883"><time>2025-12-27T13:27:02.097</time></trkpt><trkpt lat="56.8348833" lon="53.2032233"><time>2025-12-27T13:27:08.097</time></trkpt><trkpt lat="56.8348367" lon="53.2032383"><time>2025-12-27T13:27:12.093</time></trkpt><trkpt lat="56.8348100" lon="53.2033133"><time>2025-12-27T13:27:16.097</time></trkpt><trkpt lat="56.8348317" lon="53.2033867"><time>2025-12-27T13:27:24.087</time></trkpt><trkpt lat="56.8348367" lon="53.2034683"><time>2025-12-27T13:27:35.053</time></trkpt><trkpt lat="56.8348483" lon="53.2033717"><time>2025-12-27T13:27:53.090</time></trkpt><trkpt lat="56.8348167" lon="53.2033133"><time>2025-12-27T13:28:24.053</time></trkpt><trkpt lat="56.8348550" lon="53.2032600"><time>2025-12-27T13:28:47.093</time></trkpt><trkpt lat="56.8349067" lon="53.2032033"><time>2025-12-27T13:28:50.093</time></trkpt><trkpt lat="56.8349483" lon="53.2031417"><time>2025-12-27T13:28:52.097</time></trkpt><trkpt lat="56.8349967" lon="53.2031267"><time>2025-12-27T13:28:55.093</time></trkpt><trkpt lat="56.8350483" lon="53.2031167"><time>2025-12-27T13:28:59.053</time></trkpt><trkpt lat="56.8351033" lon="53.2032900"><time>2025-12-27T13:29:00.047</time></trkpt><trkpt lat="56.8351617" lon="53.2034900"><time>2025-12-27T13:29:01.053</time></trkpt><trkpt lat="56.8352117" lon="53.2035983"><time>2025-12-27T13:29:02.050</time></trkpt><trkpt lat="56.8352267" lon="53.2036933"><time>2025-12-27T13:29:03.050</time></trkpt><trkpt lat="56.8352733" lon="53.2036417"><time>2025-12-27T13:29:05.090</time></trkpt><trkpt lat="56.8352550" lon="53.2035633"><time>2025-12-27T13:29:06.103</time></trkpt><trkpt lat="56.8352117" lon="53.2034467"><time>2025-12-27T13:29:07.097</time></trkpt><trkpt lat="56.8351800" lon="53.2033517"><time>2025-12-27T13:29:08.097</time></trkpt><trkpt lat="56.8351283" lon="53.2032083"><time>2025-12-27T13:29:14.103</time></trkpt><trkpt lat="56.8350850" lon="53.2031533"><time>2025-12-27T13:29:18.100</time></trkpt><trkpt lat="56.8351133" lon="53.2029583"><time>2025-12-27T13:29:37.097</time></trkpt><trkpt lat="56.8351633" lon="53.2029133"><time>2025-12-27T13:29:42.097</time></trkpt><trkpt lat="56.8352033" lon="53.2028533"><time>2025-12-27T13:29:45.103</time></trkpt><trkpt lat="56.8352333" lon="53.2027533"><time>2025-12-27T13:29:53.097</time></trkpt><trkpt lat="56.8352617" lon="53.2026783"><time>2025-12-27T13:29:58.093</time></trkpt><trkpt lat="56.8352417" lon="53.2027583"><time>2025-12-27T13:30:05.097</time></trkpt><trkpt lat="56.8352050" lon="53.2028283"><time>2025-12-27T13:30:12.097</time></trkpt><trkpt lat="56.8351683" lon="53.2028833"><time>2025-12-27T13:30:17.097</time></trkpt><trkpt lat="56.8351333" lon="53.2029433"><time>2025-12-27T13:30:22.093</time></trkpt><trkpt lat="56.8350900" lon="53.2029817"><time>2025-12-27T13:30:26.093</time></trkpt><trkpt lat="56.8350483" lon="53.2030250"><time>2025-12-27T13:30:30.093</time></trkpt><trkpt lat="56.8349917" lon="53.2030750"><time>2025-12-27T13:30:39.100</time></trkpt><trkpt lat="56.8349367" lon="53.2031167"><time>2025-12-27T13:30:43.090</time></trkpt><trkpt lat="56.8348850" lon="53.2031550"><time>2025-12-27T13:30:49.097</time></trkpt><trkpt lat="56.8348400" lon="53.2032383"><time>2025-12-27T13:30:56.093</time></trkpt><trkpt lat="56.8347933" lon="53.2032833"><time>2025-12-27T13:31:02.060</time></trkpt><trkpt lat="56.8347517" lon="53.2033250"><time>2025-12-27T13:31:06.113</time></trkpt><trkpt lat="56.8347167" lon="53.2033767"><time>2025-12-27T13:31:09.103</time></trkpt><trkpt lat="56.8346700" lon="53.2033933"><time>2025-12-27T13:31:13.100</time></trkpt><trkpt lat="56.8346167" lon="53.2034217"><time>2025-12-27T13:31:19.100</time></trkpt><trkpt lat="56.8345700" lon="53.2034617"><time>2025-12-27T13:31:24.100</time></trkpt><trkpt lat="56.8345250" lon="53.2034683"><time>2025-12-27T13:31:46.057</time></trkpt><trkpt lat="56.8344817" lon="53.2034983"><time>2025-12-27T13:32:12.090</time></trkpt><trkpt lat="56.8344367" lon="53.2035217"><time>2025-12-27T13:32:17.100</time></trkpt><trkpt lat="56.8343917" lon="53.2035433"><time>2025-12-27T13:32:20.090</time></trkpt><trkpt lat="56.8343400" lon="53.2035783"><time>2025-12-27T13:32:23.090</time></trkpt><trkpt lat="56.8342883" lon="53.2035817"><time>2025-12-27T13:32:25.090</time></trkpt><trkpt lat="56.8342333" lon="53.2036133"><time>2025-12-27T13:32:27.087</time></trkpt><trkpt lat="56.8342050" lon="53.2036867"><time>2025-12-27T13:32:44.090</time></trkpt><trkpt lat="56.8342500" lon="53.2036783"><time>2025-12-27T13:33:01.093</time></trkpt><trkpt lat="56.8342667" lon="53.2035833"><time>2025-12-27T13:33:05.097</time></trkpt><trkpt lat="56.8342467" lon="53.2035017"><time>2025-12-27T13:33:10.090</time></trkpt><trkpt lat="56.8342617" lon="53.2034217"><time>2025-12-27T13:33:18.087</time></trkpt><trkpt lat="56.8343233" lon="53.2034000"><time>2025-12-27T13:33:43.093</time></trkpt><trkpt lat="56.8342833" lon="53.2035133"><time>2025-12-27T13:35:00.080</time></trkpt><trkpt lat="56.8343183" lon="53.2036383"><time>2025-12-27T13:35:15.090</time></trkpt><trkpt lat="56.8342367" lon="53.2036667"><time>2025-12-27T13:35:34.100</time></trkpt><trkpt lat="56.8341283" lon="53.2036483"><time>2025-12-27T13:36:06.100</time></trkpt><trkpt lat="56.8341233" lon="53.2037483"><time>2025-12-27T13:36:13.093</time></trkpt><trkpt lat="56.8340683" lon="53.2038083"><time>2025-12-27T13:36:21.087</time></trkpt><trkpt lat="56.8340550" lon="53.2039717"><time>2025-12-27T13:36:54.087</time></trkpt><trkpt lat="56.8340900" lon="53.2040283"><time>2025-12-27T13:36:56.093</time></trkpt><trkpt lat="56.8341183" lon="53.2041000"><time>2025-12-27T13:36:59.100</time></trkpt><trkpt lat="56.8341400" lon="53.2042083"><time>2025-12-27T13:37:02.117</time></trkpt><trkpt lat="56.8341500" lon="53.2042317"><time>2025-12-27T13:37:03.090</time></trkpt><trkpt lat="56.8341917" lon="53.2042883"><time>2025-12-27T13:37:06.087</time></trkpt><trkpt lat="56.8342117" lon="53.2043667"><time>2025-12-27T13:37:08.083</time></trkpt><trkpt lat="56.8342333" lon="53.2044717"><time>2025-12-27T13:37:11.047</time></trkpt><trkpt lat="56.8342417" lon="53.2045583"><time>2025-12-27T13:37:15.043</time></trkpt><trkpt lat="56.8342517" lon="53.2046733"><time>2025-12-27T13:37:18.077</time></trkpt><trkpt lat="56.8342600" lon="53.2047967"><time>2025-12-27T13:37:21.077</time></trkpt><trkpt lat="56.8342583" lon="53.2048900"><time>2025-12-27T13:37:23.087</time></trkpt><trkpt lat="56.8342667" lon="53.2050167"><time>2025-12-27T13:37:26.080</time></trkpt><trkpt lat="56.8342850" lon="53.2051267"><time>2025-12-27T13:37:29.077</time></trkpt><trkpt lat="56.8342950" lon="53.2052517"><time>2025-12-27T13:37:32.083</time></trkpt><trkpt lat="56.8343017" lon="53.2053800"><time>2025-12-27T13:37:35.080</time></trkpt><trkpt lat="56.8343183" lon="53.2054717"><time>2025-12-27T13:37:38.083</time></trkpt><trkpt lat="56.8343117" lon="53.2055550"><time>2025-12-27T13:37:41.077</time></trkpt><trkpt lat="56.8343067" lon="53.2056700"><time>2025-12-27T13:37:44.083</time></trkpt><trkpt lat="56.8343150" lon="53.2057567"><time>2025-12-27T13:37:46.083</time></trkpt><trkpt lat="56.8343283" lon="53.2058500"><time>2025-12-27T13:37:48.087</time></trkpt><trkpt lat="56.8343450" lon="53.2059283"><time>2025-12-27T13:37:50.097</time></trkpt><trkpt lat="56.8343450" lon="53.2059750"><time>2025-12-27T13:37:51.083</time></trkpt><trkpt lat="56.8343400" lon="53.2061217"><time>2025-12-27T13:37:53.110</time></trkpt><trkpt lat="56.8343367" lon="53.2062067"><time>2025-12-27T13:37:54.100</time></trkpt><trkpt lat="56.8343150" lon="53.2063417"><time>2025-12-27T13:37:57.067</time></trkpt><trkpt lat="56.8343217" lon="53.2064250"><time>2025-12-27T13:37:59.087</time></trkpt><trkpt lat="56.8343400" lon="53.2065067"><time>2025-12-27T13:38:02.080</time></trkpt><trkpt lat="56.8343817" lon="53.2065750"><time>2025-12-27T13:38:05.073</time></trkpt><trkpt lat="56.8343567" lon="53.2066533"><time>2025-12-27T13:38:08.090</time></trkpt><trkpt lat="56.8343500" lon="53.2067400"><time>2025-12-27T13:38:16.077</time></trkpt><trkpt lat="56.8342950" lon="53.2067033"><time>2025-12-27T13:38:23.080</time></trkpt><trkpt lat="56.8342500" lon="53.2067100"><time>2025-12-27T13:38:26.093</time></trkpt><trkpt lat="56.8342150" lon="53.2067733"><time>2025-12-27T13:38:31.080</time></trkpt><trkpt lat="56.8342083" lon="53.2068867"><time>2025-12-27T13:38:35.087</time></trkpt><trkpt lat="56.8342167" lon="53.2069733"><time>2025-12-27T13:38:39.087</time></trkpt><trkpt lat="56.8341950" lon="53.2070783"><time>2025-12-27T13:38:43.083</time></trkpt><trkpt lat="56.8341550" lon="53.2071550"><time>2025-12-27T13:38:46.073</time></trkpt><trkpt lat="56.8341400" lon="53.2072733"><time>2025-12-27T13:38:49.077</time></trkpt><trkpt lat="56.8341083" lon="53.2073433"><time>2025-12-27T13:38:51.070</time></trkpt><trkpt lat="56.8341133" lon="53.2074467"><time>2025-12-27T13:38:53.077</time></trkpt><trkpt lat="56.8341350" lon="53.2075483"><time>2025-12-27T13:38:55.080</time></trkpt><trkpt lat="56.8341367" lon="53.2076533"><time>2025-12-27T13:38:58.077</time></trkpt><trkpt lat="56.8341300" lon="53.2077600"><time>2025-12-27T13:39:00.087</time></trkpt><trkpt lat="56.8341450" lon="53.2078450"><time>2025-12-27T13:39:02.070</time></trkpt><trkpt lat="56.8341400" lon="53.2079583"><time>2025-12-27T13:39:05.080</time></trkpt><trkpt lat="56.8341533" lon="53.2080650"><time>2025-12-27T13:39:08.073</time></trkpt><trkpt lat="56.8341867" lon="53.2081417"><time>2025-12-27T13:39:11.083</time></trkpt><trkpt lat="56.8341683" lon="53.2082300"><time>2025-12-27T13:39:14.100</time></trkpt><trkpt lat="56.8341850" lon="53.2083600"><time>2025-12-27T13:39:22.113</time></trkpt><trkpt lat="56.8341667" lon="53.2084017"><time>2025-12-27T13:39:23.087</time></trkpt><trkpt lat="56.8341450" lon="53.2085033"><time>2025-12-27T13:39:25.053</time></trkpt><trkpt lat="56.8341483" lon="53.2085933"><time>2025-12-27T13:39:29.087</time></trkpt><trkpt lat="56.8340983" lon="53.2086267"><time>2025-12-27T13:39:34.083</time></trkpt><trkpt lat="56.8340467" lon="53.2085817"><time>2025-12-27T13:39:39.090</time></trkpt><trkpt lat="56.8340017" lon="53.2085467"><time>2025-12-27T13:39:42.090</time></trkpt><trkpt lat="56.8339767" lon="53.2084683"><time>2025-12-27T13:39:46.083</time></trkpt><trkpt lat="56.8339667" lon="53.2083733"><time>2025-12-27T13:39:51.060</time></trkpt><trkpt lat="56.8339433" lon="53.2082933"><time>2025-12-27T13:39:56.087</time></trkpt><trkpt lat="56.8339133" lon="53.2081983"><time>2025-12-27T13:40:02.083</time></trkpt><trkpt lat="56.8338883" lon="53.2081300"><time>2025-12-27T13:40:05.087</time></trkpt><trkpt lat="56.8338167" lon="53.2080167"><time>2025-12-27T13:40:14.083</time></trkpt><trkpt lat="56.8337750" lon="53.2079500"><time>2025-12-27T13:40:17.083</time></trkpt><trkpt lat="56.8337000" lon="53.2078567"><time>2025-12-27T13:40:19.083</time></trkpt><trkpt lat="56.8336550" lon="53.2078733"><time>2025-12-27T13:40:21.057</time></trkpt><trkpt lat="56.8337300" lon="53.2079750"><time>2025-12-27T13:40:38.083</time></trkpt><trkpt lat="56.8337717" lon="53.2080633"><time>2025-12-27T13:40:42.087</time></trkpt><trkpt lat="56.8338083" lon="53.2081367"><time>2025-12-27T13:40:44.087</time></trkpt><trkpt lat="56.8338517" lon="53.2082033"><time>2025-12-27T13:40:46.077</time></trkpt><trkpt lat="56.8338983" lon="53.2082783"><time>2025-12-27T13:40:48.063</time></trkpt><trkpt lat="56.8339500" lon="53.2083500"><time>2025-12-27T13:40:50.087</time></trkpt><trkpt lat="56.8339567" lon="53.2084550"><time>2025-12-27T13:40:52.087</time></trkpt><trkpt lat="56.8339767" lon="53.2085383"><time>2025-12-27T13:40:55.083</time></trkpt><trkpt lat="56.8339967" lon="53.2086200"><time>2025-12-27T13:40:58.090</time></trkpt><trkpt lat="56.8339950" lon="53.2087100"><time>2025-12-27T13:41:02.097</time></trkpt><trkpt lat="56.8339483" lon="53.2087450"><time>2025-12-27T13:41:05.070</time></trkpt><trkpt lat="56.8338967" lon="53.2087733"><time>2025-12-27T13:41:09.083</time></trkpt><trkpt lat="56.8338317" lon="53.2088000"><time>2025-12-27T13:41:15.080</time></trkpt><trkpt lat="56.8337867" lon="53.2087867"><time>2025-12-27T13:41:16.090</time></trkpt><trkpt lat="56.8337417" lon="53.2087917"><time>2025-12-27T13:41:17.080</time></trkpt><trkpt lat="56.8336733" lon="53.2088067"><time>2025-12-27T13:41:19.083</time></trkpt><trkpt lat="56.8336083" lon="53.2088500"><time>2025-12-27T13:41:21.087</time></trkpt><trkpt lat="56.8335583" lon="53.2088467"><time>2025-12-27T13:41:23.087</time></trkpt><trkpt lat="56.8335033" lon="53.2088500"><time>2025-12-27T13:41:25.083</time></trkpt><trkpt lat="56.8334567" lon="53.2089017"><time>2025-12-27T13:41:27.090</time></trkpt><trkpt lat="56.8334050" lon="53.2089633"><time>2025-12-27T13:41:31.117</time></trkpt><trkpt lat="56.8333950" lon="53.2090050"><time>2025-12-27T13:41:32.080</time></trkpt><trkpt lat="56.8333833" lon="53.2090867"><time>2025-12-27T13:41:36.067</time></trkpt><trkpt lat="56.8333067" lon="53.2091617"><time>2025-12-27T13:41:42.080</time></trkpt><trkpt lat="56.8332633" lon="53.2091917"><time>2025-12-27T13:41:44.080</time></trkpt><trkpt lat="56.8332167" lon="53.2092233"><time>2025-12-27T13:41:47.057</time></trkpt><trkpt lat="56.8331917" lon="53.2092917"><time>2025-12-27T13:41:50.083</time></trkpt><trkpt lat="56.8331650" lon="53.2093733"><time>2025-12-27T13:41:53.087</time></trkpt><trkpt lat="56.8331533" lon="53.2094633"><time>2025-12-27T13:41:55.080</time></trkpt><trkpt lat="56.8331733" lon="53.2095667"><time>2025-12-27T13:41:58.083</time></trkpt><trkpt lat="56.8331850" lon="53.2096650"><time>2025-12-27T13:42:00.087</time></trkpt><trkpt lat="56.8331983" lon="53.2097950"><time>2025-12-27T13:42:02.120</time></trkpt><trkpt lat="56.8332033" lon="53.2098583"><time>2025-12-27T13:42:03.083</time></trkpt><trkpt lat="56.8332083" lon="53.2099550"><time>2025-12-27T13:42:05.077</time></trkpt><trkpt lat="56.8332167" lon="53.2100583"><time>2025-12-27T13:42:07.083</time></trkpt><trkpt lat="56.8332100" lon="53.2101700"><time>2025-12-27T13:42:10.080</time></trkpt><trkpt lat="56.8331950" lon="53.2102500"><time>2025-12-27T13:42:12.063</time></trkpt><trkpt lat="56.8332000" lon="53.2103367"><time>2025-12-27T13:42:15.117</time></trkpt><trkpt lat="56.8332000" lon="53.2103367"><time>2025-12-27T13:42:15.507</time></trkpt><trkpt lat="56.8331833" lon="53.2105300"><time>2025-12-27T13:42:24.140</time></trkpt><trkpt lat="56.8332000" lon="53.2105517"><time>2025-12-27T13:42:25.077</time></trkpt><trkpt lat="56.8332767" lon="53.2105950"><time>2025-12-27T13:42:38.083</time></trkpt><trkpt lat="56.8332883" lon="53.2104983"><time>2025-12-27T13:42:46.087</time></trkpt><trkpt lat="56.8332717" lon="53.2104183"><time>2025-12-27T13:42:49.080</time></trkpt><trkpt lat="56.8332000" lon="53.2102800"><time>2025-12-27T13:44:04.087</time></trkpt><trkpt lat="56.8331933" lon="53.2101767"><time>2025-12-27T13:44:08.083</time></trkpt><trkpt lat="56.8332083" lon="53.2100767"><time>2025-12-27T13:44:11.087</time></trkpt><trkpt lat="56.8331950" lon="53.2099483"><time>2025-12-27T13:44:14.087</time></trkpt><trkpt lat="56.8331867" lon="53.2098317"><time>2025-12-27T13:44:16.087</time></trkpt><trkpt lat="56.8331867" lon="53.2097233"><time>2025-12-27T13:44:18.083</time></trkpt><trkpt lat="56.8331800" lon="53.2096150"><time>2025-12-27T13:44:21.080</time></trkpt><trkpt lat="56.8331717" lon="53.2095200"><time>2025-12-27T13:44:36.080</time></trkpt><trkpt lat="56.8331100" lon="53.2094933"><time>2025-12-27T13:44:39.093</time></trkpt><trkpt lat="56.8330683" lon="53.2094567"><time>2025-12-27T13:44:41.083</time></trkpt><trkpt lat="56.8330150" lon="53.2094350"><time>2025-12-27T13:44:45.057</time></trkpt><trkpt lat="56.8329967" lon="53.2095117"><time>2025-12-27T13:44:48.080</time></trkpt><trkpt lat="56.8329633" lon="53.2095917"><time>2025-12-27T13:44:50.093</time></trkpt><trkpt lat="56.8329317" lon="53.2096767"><time>2025-12-27T13:44:52.090</time></trkpt><trkpt lat="56.8329000" lon="53.2097700"><time>2025-12-27T13:44:54.083</time></trkpt><trkpt lat="56.8328717" lon="53.2098383"><time>2025-12-27T13:44:57.083</time></trkpt><trkpt lat="56.8328767" lon="53.2099317"><time>2025-12-27T13:45:03.097</time></trkpt><trkpt lat="56.8328483" lon="53.2100167"><time>2025-12-27T13:45:06.093</time></trkpt><trkpt lat="56.8328183" lon="53.2100917"><time>2025-12-27T13:45:08.080</time></trkpt><trkpt lat="56.8328150" lon="53.2102167"><time>2025-12-27T13:45:10.067</time></trkpt><trkpt lat="56.8328133" lon="53.2103267"><time>2025-12-27T13:45:13.077</time></trkpt><trkpt lat="56.8328233" lon="53.2104283"><time>2025-12-27T13:45:16.053</time></trkpt><trkpt lat="56.8328317" lon="53.2105250"><time>2025-12-27T13:45:19.077</time></trkpt><trkpt lat="56.8328583" lon="53.2106050"><time>2025-12-27T13:45:24.060</time></trkpt><trkpt lat="56.8328400" lon="53.2106800"><time>2025-12-27T13:45:27.087</time></trkpt><trkpt lat="56.8328317" lon="53.2107783"><time>2025-12-27T13:45:32.083</time></trkpt><trkpt lat="56.8328000" lon="53.2108683"><time>2025-12-27T13:45:35.077</time></trkpt><trkpt lat="56.8327933" lon="53.2109783"><time>2025-12-27T13:45:39.080</time></trkpt><trkpt lat="56.8327733" lon="53.2110517"><time>2025-12-27T13:45:41.083</time></trkpt><trkpt lat="56.8327600" lon="53.2111317"><time>2025-12-27T13:45:43.087</time></trkpt><trkpt lat="56.8327750" lon="53.2112150"><time>2025-12-27T13:45:47.080</time></trkpt><trkpt lat="56.8327800" lon="53.2113200"><time>2025-12-27T13:45:52.087</time></trkpt><trkpt lat="56.8328183" lon="53.2113900"><time>2025-12-27T13:45:54.087</time></trkpt><trkpt lat="56.8328450" lon="53.2114750"><time>2025-12-27T13:45:56.080</time></trkpt><trkpt lat="56.8328667" lon="53.2115683"><time>2025-12-27T13:45:59.080</time></trkpt><trkpt lat="56.8328350" lon="53.2116450"><time>2025-12-27T13:46:03.077</time></trkpt><trkpt lat="56.8328517" lon="53.2117283"><time>2025-12-27T13:46:06.093</time></trkpt><trkpt lat="56.8328467" lon="53.2118417"><time>2025-12-27T13:46:12.083</time></trkpt><trkpt lat="56.8328083" lon="53.2119217"><time>2025-12-27T13:46:16.057</time></trkpt><trkpt lat="56.8328867" lon="53.2119317"><time>2025-12-27T13:46:23.090</time></trkpt><trkpt lat="56.8329267" lon="53.2119767"><time>2025-12-27T13:46:42.080</time></trkpt><trkpt lat="56.8329033" lon="53.2120567"><time>2025-12-27T13:46:45.093</time></trkpt><trkpt lat="56.8328667" lon="53.2121283"><time>2025-12-27T13:46:48.083</time></trkpt><trkpt lat="56.8328650" lon="53.2122217"><time>2025-12-27T13:46:50.087</time></trkpt><trkpt lat="56.8328750" lon="53.2123117"><time>2025-12-27T13:46:52.077</time></trkpt><trkpt lat="56.8328900" lon="53.2123933"><time>2025-12-27T13:46:54.083</time></trkpt><trkpt lat="56.8329117" lon="53.2125083"><time>2025-12-27T13:46:57.087</time></trkpt><trkpt lat="56.8329167" lon="53.2126283"><time>2025-12-27T13:47:01.077</time></trkpt><trkpt lat="56.8328800" lon="53.2126783"><time>2025-12-27T13:47:03.087</time></trkpt><trkpt lat="56.8328433" lon="53.2127467"><time>2025-12-27T13:47:08.087</time></trkpt><trkpt lat="56.8328383" lon="53.2128483"><time>2025-12-27T13:47:11.063</time></trkpt><trkpt lat="56.8328833" lon="53.2129383"><time>2025-12-27T13:47:14.087</time></trkpt><trkpt lat="56.8329333" lon="53.2130200"><time>2025-12-27T13:47:16.083</time></trkpt><trkpt lat="56.8329617" lon="53.2131200"><time>2025-12-27T13:47:18.087</time></trkpt><trkpt lat="56.8330033" lon="53.2131767"><time>2025-12-27T13:47:20.080</time></trkpt><trkpt lat="56.8330000" lon="53.2132750"><time>2025-12-27T13:47:27.080</time></trkpt><trkpt lat="56.8330367" lon="53.2133617"><time>2025-12-27T13:47:36.083</time></trkpt><trkpt lat="56.8330800" lon="53.2134350"><time>2025-12-27T13:47:39.090</time></trkpt><trkpt lat="56.8331200" lon="53.2134817"><time>2025-12-27T13:47:41.077</time></trkpt><trkpt lat="56.8331517" lon="53.2135650"><time>2025-12-27T13:47:44.080</time></trkpt><trkpt lat="56.8332317" lon="53.2137000"><time>2025-12-27T13:47:51.077</time></trkpt><trkpt lat="56.8332383" lon="53.2137933"><time>2025-12-27T13:47:58.087</time></trkpt><trkpt lat="56.8332400" lon="53.2139050"><time>2025-12-27T13:48:00.087</time></trkpt><trkpt lat="56.8332200" lon="53.2139867"><time>2025-12-27T13:48:01.067</time></trkpt><trkpt lat="56.8332200" lon="53.2140933"><time>2025-12-27T13:48:03.073</time></trkpt><trkpt lat="56.8332433" lon="53.2141850"><time>2025-12-27T13:48:06.090</time></trkpt><trkpt lat="56.8332617" lon="53.2142933"><time>2025-12-27T13:48:09.087</time></trkpt><trkpt lat="56.8332683" lon="53.2143950"><time>2025-12-27T13:48:11.080</time></trkpt><trkpt lat="56.8332683" lon="53.2145217"><time>2025-12-27T13:48:13.087</time></trkpt><trkpt lat="56.8333033" lon="53.2145833"><time>2025-12-27T13:48:15.083</time></trkpt><trkpt lat="56.8333183" lon="53.2146767"><time>2025-12-27T13:48:19.077</time></trkpt><trkpt lat="56.8333400" lon="53.2147550"><time>2025-12-27T13:48:21.083</time></trkpt><trkpt lat="56.8333667" lon="53.2148517"><time>2025-12-27T13:48:24.067</time></trkpt><trkpt lat="56.8333600" lon="53.2149350"><time>2025-12-27T13:48:30.087</time></trkpt><trkpt lat="56.8334283" lon="53.2150633"><time>2025-12-27T13:48:49.077</time></trkpt><trkpt lat="56.8335150" lon="53.2150650"><time>2025-12-27T13:48:53.083</time></trkpt><trkpt lat="56.8336000" lon="53.2152333"><time>2025-12-27T13:49:05.077</time></trkpt><trkpt lat="56.8336483" lon="53.2153867"><time>2025-12-27T13:49:09.067</time></trkpt><trkpt lat="56.8336967" lon="53.2154350"><time>2025-12-27T13:49:10.077</time></trkpt><trkpt lat="56.8337167" lon="53.2153567"><time>2025-12-27T13:49:15.087</time></trkpt><trkpt lat="56.8337400" lon="53.2155417"><time>2025-12-27T13:49:24.073</time></trkpt><trkpt lat="56.8337567" lon="53.2156467"><time>2025-12-27T13:49:26.083</time></trkpt><trkpt lat="56.8337817" lon="53.2157333"><time>2025-12-27T13:49:29.083</time></trkpt><trkpt lat="56.8337850" lon="53.2158217"><time>2025-12-27T13:49:32.073</time></trkpt><trkpt lat="56.8337367" lon="53.2159100"><time>2025-12-27T13:49:35.080</time></trkpt><trkpt lat="56.8337033" lon="53.2159867"><time>2025-12-27T13:49:38.077</time></trkpt><trkpt lat="56.8336867" lon="53.2160700"><time>2025-12-27T13:49:41.087</time></trkpt><trkpt lat="56.8336550" lon="53.2162483"><time>2025-12-27T13:49:47.087</time></trkpt><trkpt lat="56.8336350" lon="53.2163367"><time>2025-12-27T13:49:50.077</time></trkpt><trkpt lat="56.8336533" lon="53.2164617"><time>2025-12-27T13:49:56.087</time></trkpt><trkpt lat="56.8336433" lon="53.2165683"><time>2025-12-27T13:49:59.070</time></trkpt><trkpt lat="56.8336483" lon="53.2166500"><time>2025-12-27T13:50:02.077</time></trkpt><trkpt lat="56.8336833" lon="53.2167717"><time>2025-12-27T13:50:09.083</time></trkpt><trkpt lat="56.8336283" lon="53.2168283"><time>2025-12-27T13:50:13.073</time></trkpt><trkpt lat="56.8335717" lon="53.2167883"><time>2025-12-27T13:50:17.093</time></trkpt><trkpt lat="56.8335217" lon="53.2169383"><time>2025-12-27T13:50:29.083</time></trkpt><trkpt lat="56.8335183" lon="53.2170417"><time>2025-12-27T13:50:32.057</time></trkpt><trkpt lat="56.8335683" lon="53.2171600"><time>2025-12-27T13:50:35.053</time></trkpt><trkpt lat="56.8335950" lon="53.2172350"><time>2025-12-27T13:50:37.087</time></trkpt><trkpt lat="56.8336000" lon="53.2173317"><time>2025-12-27T13:50:40.097</time></trkpt><trkpt lat="56.8335950" lon="53.2175667"><time>2025-12-27T13:50:49.087</time></trkpt><trkpt lat="56.8336650" lon="53.2177217"><time>2025-12-27T13:51:02.083</time></trkpt><trkpt lat="56.8336983" lon="53.2177850"><time>2025-12-27T13:51:06.073</time></trkpt><trkpt lat="56.8337217" lon="53.2178933"><time>2025-12-27T13:51:09.077</time></trkpt><trkpt lat="56.8337533" lon="53.2179567"><time>2025-12-27T13:51:11.083</time></trkpt><trkpt lat="56.8337750" lon="53.2180400"><time>2025-12-27T13:51:14.087</time></trkpt><trkpt lat="56.8337583" lon="53.2181333"><time>2025-12-27T13:51:17.077</time></trkpt><trkpt lat="56.8337533" lon="53.2182417"><time>2025-12-27T13:51:19.077</time></trkpt><trkpt lat="56.8337650" lon="53.2183300"><time>2025-12-27T13:51:21.083</time></trkpt><trkpt lat="56.8337733" lon="53.2184233"><time>2025-12-27T13:51:23.083</time></trkpt><trkpt lat="56.8337833" lon="53.2185350"><time>2025-12-27T13:51:26.083</time></trkpt><trkpt lat="56.8337967" lon="53.2186300"><time>2025-12-27T13:51:29.080</time></trkpt><trkpt lat="56.8337617" lon="53.2187017"><time>2025-12-27T13:51:31.073</time></trkpt><trkpt lat="56.8337667" lon="53.2187833"><time>2025-12-27T13:51:34.083</time></trkpt><trkpt lat="56.8337583" lon="53.2190233"><time>2025-12-27T13:51:50.087</time></trkpt><trkpt lat="56.8337633" lon="53.2191300"><time>2025-12-27T13:51:53.097</time></trkpt><trkpt lat="56.8337717" lon="53.2192517"><time>2025-12-27T13:51:56.080</time></trkpt><trkpt lat="56.8337750" lon="53.2193450"><time>2025-12-27T13:51:58.087</time></trkpt><trkpt lat="56.8337850" lon="53.2194583"><time>2025-12-27T13:52:01.083</time></trkpt><trkpt lat="56.8337783" lon="53.2195850"><time>2025-12-27T13:52:04.050</time></trkpt><trkpt lat="56.8338383" lon="53.2196700"><time>2025-12-27T13:52:15.090</time></trkpt><trkpt lat="56.8338500" lon="53.2197567"><time>2025-12-27T13:52:17.087</time></trkpt><trkpt lat="56.8338767" lon="53.2198567"><time>2025-12-27T13:52:20.087</time></trkpt><trkpt lat="56.8338850" lon="53.2199417"><time>2025-12-27T13:52:22.083</time></trkpt><trkpt lat="56.8339083" lon="53.2200400"><time>2025-12-27T13:52:25.080</time></trkpt><trkpt lat="56.8339233" lon="53.2201650"><time>2025-12-27T13:52:28.083</time></trkpt><trkpt lat="56.8339350" lon="53.2202567"><time>2025-12-27T13:52:30.080</time></trkpt><trkpt lat="56.8339317" lon="53.2203483"><time>2025-12-27T13:52:33.077</time></trkpt><trkpt lat="56.8339400" lon="53.2204433"><time>2025-12-27T13:52:36.093</time></trkpt><trkpt lat="56.8339467" lon="53.2206550"><time>2025-12-27T13:52:52.087</time></trkpt><trkpt lat="56.8339850" lon="53.2207233"><time>2025-12-27T13:52:57.087</time></trkpt><trkpt lat="56.8340350" lon="53.2207533"><time>2025-12-27T13:53:02.130</time></trkpt><trkpt lat="56.8340433" lon="53.2207600"><time>2025-12-27T13:53:03.083</time></trkpt><trkpt lat="56.8341150" lon="53.2207333"><time>2025-12-27T13:53:10.087</time></trkpt><trkpt lat="56.8341650" lon="53.2206983"><time>2025-12-27T13:53:13.087</time></trkpt><trkpt lat="56.8342100" lon="53.2206633"><time>2025-12-27T13:53:17.073</time></trkpt><trkpt lat="56.8343183" lon="53.2206900"><time>2025-12-27T13:53:27.080</time></trkpt><trkpt lat="56.8344083" lon="53.2206567"><time>2025-12-27T13:53:34.083</time></trkpt><trkpt lat="56.8344583" lon="53.2206733"><time>2025-12-27T13:53:38.070</time></trkpt><trkpt lat="56.8345017" lon="53.2206483"><time>2025-12-27T13:53:41.080</time></trkpt><trkpt lat="56.8344917" lon="53.2207433"><time>2025-12-27T13:53:44.080</time></trkpt><trkpt lat="56.8345433" lon="53.2207317"><time>2025-12-27T13:53:48.080</time></trkpt><trkpt lat="56.8346050" lon="53.2206667"><time>2025-12-27T13:53:51.087</time></trkpt><trkpt lat="56.8346583" lon="53.2206017"><time>2025-12-27T13:53:54.090</time></trkpt><trkpt lat="56.8347283" lon="53.2206117"><time>2025-12-27T13:53:56.087</time></trkpt><trkpt lat="56.8347817" lon="53.2206200"><time>2025-12-27T13:53:58.083</time></trkpt><trkpt lat="56.8348333" lon="53.2206417"><time>2025-12-27T13:54:01.083</time></trkpt><trkpt lat="56.8348883" lon="53.2206350"><time>2025-12-27T13:54:03.083</time></trkpt><trkpt lat="56.8349517" lon="53.2206233"><time>2025-12-27T13:54:06.073</time></trkpt><trkpt lat="56.8350033" lon="53.2206083"><time>2025-12-27T13:54:09.080</time></trkpt><trkpt lat="56.8351417" lon="53.2205667"><time>2025-12-27T13:54:16.077</time></trkpt><trkpt lat="56.8351933" lon="53.2205733"><time>2025-12-27T13:54:21.083</time></trkpt><trkpt lat="56.8352500" lon="53.2205567"><time>2025-12-27T13:54:27.077</time></trkpt><trkpt lat="56.8352950" lon="53.2205200"><time>2025-12-27T13:54:41.047</time></trkpt><trkpt lat="56.8353050" lon="53.2206217"><time>2025-12-27T13:54:44.067</time></trkpt><trkpt lat="56.8353100" lon="53.2205350"><time>2025-12-27T13:54:46.077</time></trkpt><trkpt lat="56.8352600" lon="53.2205150"><time>2025-12-27T13:54:49.080</time></trkpt><trkpt lat="56.8352117" lon="53.2204900"><time>2025-12-27T13:54:53.087</time></trkpt><trkpt lat="56.8352850" lon="53.2205983"><time>2025-12-27T13:55:03.087</time></trkpt><trkpt lat="56.8353083" lon="53.2206883"><time>2025-12-27T13:55:07.087</time></trkpt><trkpt lat="56.8353500" lon="53.2207450"><time>2025-12-27T13:55:12.080</time></trkpt><trkpt lat="56.8353933" lon="53.2207750"><time>2025-12-27T13:55:15.087</time></trkpt><trkpt lat="56.8354300" lon="53.2208333"><time>2025-12-27T13:55:21.077</time></trkpt><trkpt lat="56.8354717" lon="53.2209033"><time>2025-12-27T13:55:24.077</time></trkpt><trkpt lat="56.8354617" lon="53.2210183"><time>2025-12-27T13:55:28.083</time></trkpt><trkpt lat="56.8354700" lon="53.2211117"><time>2025-12-27T13:55:31.107</time></trkpt><trkpt lat="56.8354617" lon="53.2211300"><time>2025-12-27T13:55:32.083</time></trkpt><trkpt lat="56.8354500" lon="53.2212467"><time>2025-12-27T13:55:36.083</time></trkpt><trkpt lat="56.8354250" lon="53.2213400"><time>2025-12-27T13:55:39.080</time></trkpt><trkpt lat="56.8354183" lon="53.2214350"><time>2025-12-27T13:55:41.103</time></trkpt><trkpt lat="56.8354633" lon="53.2215150"><time>2025-12-27T13:55:45.083</time></trkpt><trkpt lat="56.8354133" lon="53.2214833"><time>2025-12-27T13:55:51.050</time></trkpt><trkpt lat="56.8353200" lon="53.2214883"><time>2025-12-27T13:55:57.087</time></trkpt><trkpt lat="56.8353217" lon="53.2215733"><time>2025-12-27T13:56:03.083</time></trkpt><trkpt lat="56.8353517" lon="53.2216383"><time>2025-12-27T13:56:10.087</time></trkpt><trkpt lat="56.8353433" lon="53.2215550"><time>2025-12-27T13:56:22.087</time></trkpt><trkpt lat="56.8353300" lon="53.2214583"><time>2025-12-27T13:56:27.080</time></trkpt><trkpt lat="56.8353983" lon="53.2213533"><time>2025-12-27T13:56:50.053</time></trkpt><trkpt lat="56.8354367" lon="53.2212767"><time>2025-12-27T13:56:53.090</time></trkpt><trkpt lat="56.8354867" lon="53.2212983"><time>2025-12-27T13:56:59.083</time></trkpt><trkpt lat="56.8355083" lon="53.2213850"><time>2025-12-27T13:57:02.047</time></trkpt><trkpt lat="56.8356200" lon="53.2213483"><time>2025-12-27T13:57:08.073</time></trkpt><trkpt lat="56.8356050" lon="53.2212700"><time>2025-12-27T13:57:11.080</time></trkpt><trkpt lat="56.8356133" lon="53.2211033"><time>2025-12-27T13:57:21.080</time></trkpt><trkpt lat="56.8355983" lon="53.2209850"><time>2025-12-27T13:57:24.103</time></trkpt><trkpt lat="56.8355917" lon="53.2209383"><time>2025-12-27T13:57:25.083</time></trkpt><trkpt lat="56.8355750" lon="53.2208317"><time>2025-12-27T13:57:27.087</time></trkpt><trkpt lat="56.8355733" lon="53.2207183"><time>2025-12-27T13:57:29.090</time></trkpt><trkpt lat="56.8355750" lon="53.2206317"><time>2025-12-27T13:57:31.090</time></trkpt><trkpt lat="56.8355750" lon="53.2205250"><time>2025-12-27T13:57:34.083</time></trkpt><trkpt lat="56.8355867" lon="53.2203283"><time>2025-12-27T13:57:53.083</time></trkpt><trkpt lat="56.8356467" lon="53.2203300"><time>2025-12-27T13:57:55.087</time></trkpt><trkpt lat="56.8357017" lon="53.2202967"><time>2025-12-27T13:57:56.090</time></trkpt><trkpt lat="56.8357533" lon="53.2203333"><time>2025-12-27T13:58:02.083</time></trkpt><trkpt lat="56.8357850" lon="53.2203967"><time>2025-12-27T13:58:03.063</time></trkpt><trkpt lat="56.8358650" lon="53.2204817"><time>2025-12-27T13:58:17.090</time></trkpt><trkpt lat="56.8358467" lon="53.2205783"><time>2025-12-27T13:58:23.047</time></trkpt><trkpt lat="56.8358683" lon="53.2206533"><time>2025-12-27T13:58:26.053</time></trkpt><trkpt lat="56.8359050" lon="53.2207100"><time>2025-12-27T13:58:29.077</time></trkpt><trkpt lat="56.8358967" lon="53.2208117"><time>2025-12-27T13:58:32.080</time></trkpt><trkpt lat="56.8358583" lon="53.2208783"><time>2025-12-27T13:58:36.083</time></trkpt><trkpt lat="56.8358733" lon="53.2209733"><time>2025-12-27T13:58:39.090</time></trkpt><trkpt lat="56.8358917" lon="53.2211767"><time>2025-12-27T13:58:45.083</time></trkpt><trkpt lat="56.8359217" lon="53.2212500"><time>2025-12-27T13:58:47.080</time></trkpt><trkpt lat="56.8359033" lon="53.2214517"><time>2025-12-27T13:58:58.113</time></trkpt><trkpt lat="56.8359000" lon="53.2214667"><time>2025-12-27T13:58:59.080</time></trkpt><trkpt lat="56.8358667" lon="53.2215717"><time>2025-12-27T13:59:03.077</time></trkpt><trkpt lat="56.8358600" lon="53.2216550"><time>2025-12-27T13:59:05.080</time></trkpt><trkpt lat="56.8358350" lon="53.2217383"><time>2025-12-27T13:59:08.090</time></trkpt><trkpt lat="56.8358017" lon="53.2218300"><time>2025-12-27T13:59:13.087</time></trkpt><trkpt lat="56.8357783" lon="53.2219050"><time>2025-12-27T13:59:14.090</time></trkpt><trkpt lat="56.8357083" lon="53.2220383"><time>2025-12-27T13:59:25.127</time></trkpt><trkpt lat="56.8356917" lon="53.2220500"><time>2025-12-27T13:59:26.087</time></trkpt><trkpt lat="56.8356667" lon="53.2221383"><time>2025-12-27T13:59:31.087</time></trkpt><trkpt lat="56.8356500" lon="53.2222200"><time>2025-12-27T13:59:35.090</time></trkpt><trkpt lat="56.8356500" lon="53.2223217"><time>2025-12-27T13:59:40.090</time></trkpt><trkpt lat="56.8355900" lon="53.2223783"><time>2025-12-27T13:59:44.080</time></trkpt><trkpt lat="56.8355450" lon="53.2225367"><time>2025-12-27T13:59:53.113</time></trkpt><trkpt lat="56.8355450" lon="53.2225367"><time>2025-12-27T13:59:53.447</time></trkpt><trkpt lat="56.8355467" lon="53.2226650"><time>2025-12-27T14:00:41.153</time></trkpt><trkpt lat="56.8355417" lon="53.2226817"><time>2025-12-27T14:00:42.093</time></trkpt><trkpt lat="56.8355183" lon="53.2227517"><time>2025-12-27T14:00:44.093</time></trkpt><trkpt lat="56.8354833" lon="53.2228200"><time>2025-12-27T14:00:49.093</time></trkpt><trkpt lat="56.8355600" lon="53.2228383"><time>2025-12-27T14:01:47.093</time></trkpt><trkpt lat="56.8354917" lon="53.2227267"><time>2025-12-27T14:01:55.090</time></trkpt><trkpt lat="56.8354150" lon="53.2227433"><time>2025-12-27T14:02:13.090</time></trkpt><trkpt lat="56.8354033" lon="53.2228350"><time>2025-12-27T14:02:16.083</time></trkpt><trkpt lat="56.8355217" lon="53.2228667"><time>2025-12-27T14:02:30.087</time></trkpt><trkpt lat="56.8355833" lon="53.2228117"><time>2025-12-27T14:02:32.090</time></trkpt><trkpt lat="56.8356367" lon="53.2227700"><time>2025-12-27T14:02:34.093</time></trkpt><trkpt lat="56.8356483" lon="53.2226717"><time>2025-12-27T14:02:44.100</time></trkpt><trkpt lat="56.8356100" lon="53.2226000"><time>2025-12-27T14:03:03.090</time></trkpt><trkpt lat="56.8356383" lon="53.2225117"><time>2025-12-27T14:03:52.043</time></trkpt><trkpt lat="56.8356133" lon="53.2226883"><time>2025-12-27T14:03:54.100</time></trkpt><trkpt lat="56.8355250" lon="53.2227317"><time>2025-12-27T14:04:47.057</time></trkpt><trkpt lat="56.8354817" lon="53.2226817"><time>2025-12-27T14:05:00.090</time></trkpt><trkpt lat="56.8353883" lon="53.2225567"><time>2025-12-27T14:05:25.093</time></trkpt><trkpt lat="56.8353600" lon="53.2226333"><time>2025-12-27T14:05:47.087</time></trkpt><trkpt lat="56.8354100" lon="53.2227733"><time>2025-12-27T14:06:19.063</time></trkpt><trkpt lat="56.8353333" lon="53.2228217"><time>2025-12-27T14:06:46.077</time></trkpt><trkpt lat="56.8352800" lon="53.2228167"><time>2025-12-27T14:06:50.093</time></trkpt><trkpt lat="56.8353083" lon="53.2229883"><time>2025-12-27T14:07:04.087</time></trkpt><trkpt lat="56.8353267" lon="53.2230883"><time>2025-12-27T14:07:07.087</time></trkpt><trkpt lat="56.8353467" lon="53.2231650"><time>2025-12-27T14:07:10.087</time></trkpt><trkpt lat="56.8353850" lon="53.2232167"><time>2025-12-27T14:07:29.090</time></trkpt><trkpt lat="56.8354450" lon="53.2231400"><time>2025-12-27T14:07:33.093</time></trkpt><trkpt lat="56.8354917" lon="53.2230900"><time>2025-12-27T14:07:38.077</time></trkpt><trkpt lat="56.8355467" lon="53.2230917"><time>2025-12-27T14:07:41.093</time></trkpt><trkpt lat="56.8355717" lon="53.2229017"><time>2025-12-27T14:07:49.083</time></trkpt><trkpt lat="56.8355533" lon="53.2228017"><time>2025-12-27T14:07:51.083</time></trkpt><trkpt lat="56.8355783" lon="53.2227117"><time>2025-12-27T14:07:54.100</time></trkpt><trkpt lat="56.8356533" lon="53.2225933"><time>2025-12-27T14:08:03.080</time></trkpt><trkpt lat="56.8356833" lon="53.2224817"><time>2025-12-27T14:08:09.083</time></trkpt><trkpt lat="56.8356917" lon="53.2223967"><time>2025-12-27T14:08:13.087</time></trkpt><trkpt lat="56.8356350" lon="53.2224500"><time>2025-12-27T14:08:17.087</time></trkpt><trkpt lat="56.8356050" lon="53.2225150"><time>2025-12-27T14:08:19.083</time></trkpt><trkpt lat="56.8355783" lon="53.2225883"><time>2025-12-27T14:08:22.083</time></trkpt><trkpt lat="56.8355550" lon="53.2226683"><time>2025-12-27T14:08:28.050</time></trkpt><trkpt lat="56.8355017" lon="53.2228200"><time>2025-12-27T14:08:37.077</time></trkpt><trkpt lat="56.8354717" lon="53.2229067"><time>2025-12-27T14:08:40.077</time></trkpt><trkpt lat="56.8354733" lon="53.2229900"><time>2025-12-27T14:08:43.093</time></trkpt><trkpt lat="56.8354450" lon="53.2230700"><time>2025-12-27T14:08:46.083</time></trkpt><trkpt lat="56.8354300" lon="53.2231533"><time>2025-12-27T14:08:49.067</time></trkpt><trkpt lat="56.8354433" lon="53.2233150"><time>2025-12-27T14:08:52.060</time></trkpt><trkpt lat="56.8354067" lon="53.2234833"><time>2025-12-27T14:08:56.080</time></trkpt><trkpt lat="56.8353683" lon="53.2233867"><time>2025-12-27T14:08:59.087</time></trkpt><trkpt lat="56.8353383" lon="53.2232433"><time>2025-12-27T14:09:23.090</time></trkpt><trkpt lat="56.8353900" lon="53.2231600"><time>2025-12-27T14:09:26.083</time></trkpt><trkpt lat="56.8354583" lon="53.2229850"><time>2025-12-27T14:09:36.090</time></trkpt><trkpt lat="56.8354717" lon="53.2228817"><time>2025-12-27T14:09:39.090</time></trkpt><trkpt lat="56.8355217" lon="53.2228100"><time>2025-12-27T14:09:42.083</time></trkpt><trkpt lat="56.8355683" lon="53.2227667"><time>2025-12-27T14:09:45.090</time></trkpt><trkpt lat="56.8355950" lon="53.2226883"><time>2025-12-27T14:09:49.093</time></trkpt><trkpt lat="56.8354900" lon="53.2227450"><time>2025-12-27T14:09:57.090</time></trkpt><trkpt lat="56.8355333" lon="53.2226700"><time>2025-12-27T14:09:58.077</time></trkpt><trkpt lat="56.8355733" lon="53.2225350"><time>2025-12-27T14:10:18.063</time></trkpt><trkpt lat="56.8355717" lon="53.2226317"><time>2025-12-27T14:10:21.080</time></trkpt><trkpt lat="56.8355617" lon="53.2227167"><time>2025-12-27T14:10:23.087</time></trkpt><trkpt lat="56.8355233" lon="53.2227933"><time>2025-12-27T14:10:35.093</time></trkpt><trkpt lat="56.8354400" lon="53.2228000"><time>2025-12-27T14:10:47.083</time></trkpt><trkpt lat="56.8354033" lon="53.2227050"><time>2025-12-27T14:10:49.087</time></trkpt><trkpt lat="56.8353600" lon="53.2226133"><time>2025-12-27T14:10:51.097</time></trkpt><trkpt lat="56.8353233" lon="53.2226617"><time>2025-12-27T14:11:36.083</time></trkpt><trkpt lat="56.8353383" lon="53.2227450"><time>2025-12-27T14:11:39.083</time></trkpt><trkpt lat="56.8353150" lon="53.2228367"><time>2025-12-27T14:11:42.083</time></trkpt><trkpt lat="56.8352817" lon="53.2228933"><time>2025-12-27T14:11:48.077</time></trkpt><trkpt lat="56.8352333" lon="53.2230567"><time>2025-12-27T14:11:50.080</time></trkpt><trkpt lat="56.8352050" lon="53.2232183"><time>2025-12-27T14:11:51.047</time></trkpt><trkpt lat="56.8352150" lon="53.2237350"><time>2025-12-27T14:11:52.117</time></trkpt><trkpt lat="56.8350767" lon="53.2244800"><time>2025-12-27T14:11:53.063</time></trkpt><trkpt lat="56.8349700" lon="53.2249367"><time>2025-12-27T14:11:54.067</time></trkpt><trkpt lat="56.8354533" lon="53.2246417"><time>2025-12-27T14:11:55.087</time></trkpt><trkpt lat="56.8355950" lon="53.2242233"><time>2025-12-27T14:11:56.110</time></trkpt><trkpt lat="56.8356200" lon="53.2242950"><time>2025-12-27T14:11:57.077</time></trkpt><trkpt lat="56.8356583" lon="53.2240767"><time>2025-12-27T14:11:59.053</time></trkpt><trkpt lat="56.8356850" lon="53.2239117"><time>2025-12-27T14:12:00.103</time></trkpt><trkpt lat="56.8357250" lon="53.2238217"><time>2025-12-27T14:12:02.060</time></trkpt><trkpt lat="56.8356967" lon="53.2239483"><time>2025-12-27T14:12:11.077</time></trkpt><trkpt lat="56.8356617" lon="53.2238783"><time>2025-12-27T14:12:14.080</time></trkpt><trkpt lat="56.8355733" lon="53.2239417"><time>2025-12-27T14:12:24.090</time></trkpt><trkpt lat="56.8355300" lon="53.2240217"><time>2025-12-27T14:12:41.093</time></trkpt><trkpt lat="56.8354800" lon="53.2240650"><time>2025-12-27T14:12:44.083</time></trkpt><trkpt lat="56.8354250" lon="53.2240783"><time>2025-12-27T14:12:46.047</time></trkpt><trkpt lat="56.8353817" lon="53.2241050"><time>2025-12-27T14:12:48.047</time></trkpt><trkpt lat="56.8353367" lon="53.2240983"><time>2025-12-27T14:12:49.050</time></trkpt><trkpt lat="56.8352483" lon="53.2239967"><time>2025-12-27T14:12:51.100</time></trkpt><trkpt lat="56.8351533" lon="53.2238000"><time>2025-12-27T14:12:52.080</time></trkpt><trkpt lat="56.8350800" lon="53.2237500"><time>2025-12-27T14:12:53.073</time></trkpt><trkpt lat="56.8350717" lon="53.2235633"><time>2025-12-27T14:12:55.070</time></trkpt><trkpt lat="56.8351117" lon="53.2234417"><time>2025-12-27T14:12:56.050</time></trkpt><trkpt lat="56.8350683" lon="53.2234000"><time>2025-12-27T14:13:03.080</time></trkpt><trkpt lat="56.8350217" lon="53.2234383"><time>2025-12-27T14:13:05.093</time></trkpt><trkpt lat="56.8350867" lon="53.2233767"><time>2025-12-27T14:13:15.083</time></trkpt><trkpt lat="56.8351750" lon="53.2232483"><time>2025-12-27T14:13:17.093</time></trkpt><trkpt lat="56.8352217" lon="53.2231800"><time>2025-12-27T14:13:19.087</time></trkpt><trkpt lat="56.8352267" lon="53.2231783"><time>2025-12-27T14:13:20.053</time></trkpt><trkpt lat="56.8352800" lon="53.2231750"><time>2025-12-27T14:13:26.093</time></trkpt><trkpt lat="56.8353267" lon="53.2231933"><time>2025-12-27T14:13:29.087</time></trkpt><trkpt lat="56.8353900" lon="53.2232250"><time>2025-12-27T14:13:34.077</time></trkpt><trkpt lat="56.8354300" lon="53.2231717"><time>2025-12-27T14:13:36.087</time></trkpt><trkpt lat="56.8354950" lon="53.2231217"><time>2025-12-27T14:13:39.087</time></trkpt><trkpt lat="56.8355400" lon="53.2230467"><time>2025-12-27T14:13:42.093</time></trkpt><trkpt lat="56.8355767" lon="53.2229983"><time>2025-12-27T14:13:45.083</time></trkpt><trkpt lat="56.8356367" lon="53.2229533"><time>2025-12-27T14:13:48.087</time></trkpt><trkpt lat="56.8356867" lon="53.2229933"><time>2025-12-27T14:13:50.083</time></trkpt><trkpt lat="56.8357500" lon="53.2230133"><time>2025-12-27T14:13:53.077</time></trkpt><trkpt lat="56.8357950" lon="53.2229650"><time>2025-12-27T14:13:59.087</time></trkpt><trkpt lat="56.8358417" lon="53.2229467"><time>2025-12-27T14:14:04.090</time></trkpt><trkpt lat="56.8358850" lon="53.2229183"><time>2025-12-27T14:14:06.087</time></trkpt><trkpt lat="56.8359367" lon="53.2228883"><time>2025-12-27T14:14:08.087</time></trkpt><trkpt lat="56.8359817" lon="53.2228833"><time>2025-12-27T14:14:10.097</time></trkpt><trkpt lat="56.8360483" lon="53.2228933"><time>2025-12-27T14:14:13.090</time></trkpt><trkpt lat="56.8361067" lon="53.2228833"><time>2025-12-27T14:14:16.093</time></trkpt><trkpt lat="56.8361650" lon="53.2228800"><time>2025-12-27T14:14:18.087</time></trkpt><trkpt lat="56.8362317" lon="53.2228567"><time>2025-12-27T14:14:20.080</time></trkpt><trkpt lat="56.8362967" lon="53.2228450"><time>2025-12-27T14:14:23.087</time></trkpt><trkpt lat="56.8363467" lon="53.2228117"><time>2025-12-27T14:14:25.083</time></trkpt><trkpt lat="56.8364183" lon="53.2227300"><time>2025-12-27T14:14:27.083</time></trkpt><trkpt lat="56.8364767" lon="53.2227050"><time>2025-12-27T14:14:30.087</time></trkpt><trkpt lat="56.8365283" lon="53.2226783"><time>2025-12-27T14:14:33.087</time></trkpt><trkpt lat="56.8365833" lon="53.2226517"><time>2025-12-27T14:14:36.080</time></trkpt><trkpt lat="56.8366400" lon="53.2226667"><time>2025-12-27T14:14:40.083</time></trkpt><trkpt lat="56.8366867" lon="53.2227433"><time>2025-12-27T14:14:43.050</time></trkpt><trkpt lat="56.8367333" lon="53.2226917"><time>2025-12-27T14:14:49.090</time></trkpt><trkpt lat="56.8367983" lon="53.2226783"><time>2025-12-27T14:14:52.087</time></trkpt><trkpt lat="56.8368450" lon="53.2226317"><time>2025-12-27T14:14:56.090</time></trkpt><trkpt lat="56.8369000" lon="53.2226417"><time>2025-12-27T14:14:59.087</time></trkpt><trkpt lat="56.8369450" lon="53.2226100"><time>2025-12-27T14:15:02.090</time></trkpt><trkpt lat="56.8370033" lon="53.2225733"><time>2025-12-27T14:15:06.077</time></trkpt><trkpt lat="56.8370650" lon="53.2225283"><time>2025-12-27T14:15:09.087</time></trkpt><trkpt lat="56.8371150" lon="53.2225067"><time>2025-12-27T14:15:11.090</time></trkpt><trkpt lat="56.8371800" lon="53.2224700"><time>2025-12-27T14:15:14.083</time></trkpt><trkpt lat="56.8372317" lon="53.2224667"><time>2025-12-27T14:15:17.080</time></trkpt><trkpt lat="56.8372867" lon="53.2224883"><time>2025-12-27T14:15:20.083</time></trkpt><trkpt lat="56.8374000" lon="53.2225000"><time>2025-12-27T14:15:33.080</time></trkpt><trkpt lat="56.8375033" lon="53.2224317"><time>2025-12-27T14:15:42.083</time></trkpt><trkpt lat="56.8375667" lon="53.2224033"><time>2025-12-27T14:15:44.087</time></trkpt><trkpt lat="56.8376300" lon="53.2223800"><time>2025-12-27T14:15:46.093</time></trkpt><trkpt lat="56.8377233" lon="53.2222633"><time>2025-12-27T14:15:48.083</time></trkpt><trkpt lat="56.8377767" lon="53.2222433"><time>2025-12-27T14:15:49.070</time></trkpt><trkpt lat="56.8378367" lon="53.2222633"><time>2025-12-27T14:15:51.077</time></trkpt><trkpt lat="56.8378850" lon="53.2222783"><time>2025-12-27T14:15:53.080</time></trkpt><trkpt lat="56.8379417" lon="53.2223067"><time>2025-12-27T14:15:55.080</time></trkpt><trkpt lat="56.8379900" lon="53.2223150"><time>2025-12-27T14:15:57.087</time></trkpt><trkpt lat="56.8380483" lon="53.2223283"><time>2025-12-27T14:15:59.077</time></trkpt><trkpt lat="56.8380933" lon="53.2223750"><time>2025-12-27T14:16:01.087</time></trkpt><trkpt lat="56.8381533" lon="53.2224117"><time>2025-12-27T14:16:04.047</time></trkpt><trkpt lat="56.8382333" lon="53.2223683"><time>2025-12-27T14:16:12.060</time></trkpt><trkpt lat="56.8382750" lon="53.2224083"><time>2025-12-27T14:16:16.090</time></trkpt><trkpt lat="56.8382833" lon="53.2223083"><time>2025-12-27T14:16:21.093</time></trkpt><trkpt lat="56.8382550" lon="53.2221883"><time>2025-12-27T14:16:23.060</time></trkpt><trkpt lat="56.8382333" lon="53.2220967"><time>2025-12-27T14:16:25.083</time></trkpt><trkpt lat="56.8382417" lon="53.2220067"><time>2025-12-27T14:16:29.090</time></trkpt><trkpt lat="56.8383317" lon="53.2220617"><time>2025-12-27T14:16:36.093</time></trkpt><trkpt lat="56.8383767" lon="53.2220150"><time>2025-12-27T14:16:38.083</time></trkpt><trkpt lat="56.8384200" lon="53.2219750"><time>2025-12-27T14:16:41.073</time></trkpt><trkpt lat="56.8384683" lon="53.2220017"><time>2025-12-27T14:16:44.083</time></trkpt><trkpt lat="56.8385183" lon="53.2219933"><time>2025-12-27T14:16:46.083</time></trkpt><trkpt lat="56.8385967" lon="53.2219450"><time>2025-12-27T14:16:49.087</time></trkpt><trkpt lat="56.8386433" lon="53.2219350"><time>2025-12-27T14:16:51.087</time></trkpt><trkpt lat="56.8387100" lon="53.2219100"><time>2025-12-27T14:16:54.087</time></trkpt><trkpt lat="56.8387600" lon="53.2218650"><time>2025-12-27T14:16:57.080</time></trkpt><trkpt lat="56.8388150" lon="53.2218250"><time>2025-12-27T14:17:01.083</time></trkpt><trkpt lat="56.8388767" lon="53.2218033"><time>2025-12-27T14:17:06.083</time></trkpt><trkpt lat="56.8389767" lon="53.2217700"><time>2025-12-27T14:17:15.087</time></trkpt><trkpt lat="56.8390300" lon="53.2217550"><time>2025-12-27T14:17:18.053</time></trkpt><trkpt lat="56.8390817" lon="53.2217533"><time>2025-12-27T14:17:21.077</time></trkpt><trkpt lat="56.8391283" lon="53.2217450"><time>2025-12-27T14:17:24.087</time></trkpt><trkpt lat="56.8391817" lon="53.2217133"><time>2025-12-27T14:17:27.080</time></trkpt><trkpt lat="56.8392400" lon="53.2217167"><time>2025-12-27T14:17:29.087</time></trkpt><trkpt lat="56.8392883" lon="53.2217017"><time>2025-12-27T14:17:31.087</time></trkpt><trkpt lat="56.8393483" lon="53.2216817"><time>2025-12-27T14:17:33.087</time></trkpt><trkpt lat="56.8394050" lon="53.2216567"><time>2025-12-27T14:17:35.090</time></trkpt><trkpt lat="56.8394517" lon="53.2216283"><time>2025-12-27T14:17:37.087</time></trkpt><trkpt lat="56.8395017" lon="53.2216100"><time>2025-12-27T14:17:40.087</time></trkpt><trkpt lat="56.8395583" lon="53.2216067"><time>2025-12-27T14:17:42.080</time></trkpt><trkpt lat="56.8396217" lon="53.2215967"><time>2025-12-27T14:17:44.090</time></trkpt><trkpt lat="56.8396700" lon="53.2215950"><time>2025-12-27T14:17:48.080</time></trkpt><trkpt lat="56.8397217" lon="53.2215667"><time>2025-12-27T14:17:53.087</time></trkpt><trkpt lat="56.8397667" lon="53.2215300"><time>2025-12-27T14:17:57.093</time></trkpt><trkpt lat="56.8398150" lon="53.2215417"><time>2025-12-27T14:18:00.080</time></trkpt><trkpt lat="56.8398600" lon="53.2215317"><time>2025-12-27T14:18:02.087</time></trkpt><trkpt lat="56.8399250" lon="53.2214933"><time>2025-12-27T14:18:05.087</time></trkpt><trkpt lat="56.8399783" lon="53.2214667"><time>2025-12-27T14:18:07.083</time></trkpt><trkpt lat="56.8400333" lon="53.2214433"><time>2025-12-27T14:18:09.080</time></trkpt><trkpt lat="56.8400933" lon="53.2214250"><time>2025-12-27T14:18:12.077</time></trkpt><trkpt lat="56.8401467" lon="53.2213967"><time>2025-12-27T14:18:15.093</time></trkpt><trkpt lat="56.8401983" lon="53.2213633"><time>2025-12-27T14:18:18.080</time></trkpt><trkpt lat="56.8402417" lon="53.2213367"><time>2025-12-27T14:18:22.087</time></trkpt><trkpt lat="56.8403483" lon="53.2213117"><time>2025-12-27T14:18:35.083</time></trkpt><trkpt lat="56.8404067" lon="53.2213167"><time>2025-12-27T14:18:38.087</time></trkpt><trkpt lat="56.8404617" lon="53.2212917"><time>2025-12-27T14:18:43.080</time></trkpt><trkpt lat="56.8405100" lon="53.2212433"><time>2025-12-27T14:18:47.090</time></trkpt><trkpt lat="56.8405650" lon="53.2212300"><time>2025-12-27T14:18:51.087</time></trkpt><trkpt lat="56.8406133" lon="53.2211967"><time>2025-12-27T14:18:54.083</time></trkpt><trkpt lat="56.8406800" lon="53.2211750"><time>2025-12-27T14:18:57.087</time></trkpt><trkpt lat="56.8407450" lon="53.2211600"><time>2025-12-27T14:19:00.077</time></trkpt><trkpt lat="56.8408000" lon="53.2211650"><time>2025-12-27T14:19:03.083</time></trkpt><trkpt lat="56.8408467" lon="53.2211367"><time>2025-12-27T14:19:05.087</time></trkpt><trkpt lat="56.8409083" lon="53.2211233"><time>2025-12-27T14:19:08.093</time></trkpt><trkpt lat="56.8409633" lon="53.2211167"><time>2025-12-27T14:19:11.077</time></trkpt><trkpt lat="56.8410067" lon="53.2210933"><time>2025-12-27T14:19:13.087</time></trkpt><trkpt lat="56.8410583" lon="53.2210750"><time>2025-12-27T14:19:16.083</time></trkpt><trkpt lat="56.8411150" lon="53.2210667"><time>2025-12-27T14:19:20.087</time></trkpt><trkpt lat="56.8411700" lon="53.2210800"><time>2025-12-27T14:19:25.083</time></trkpt><trkpt lat="56.8412550" lon="53.2210567"><time>2025-12-27T14:19:35.083</time></trkpt><trkpt lat="56.8413100" lon="53.2210150"><time>2025-12-27T14:19:37.087</time></trkpt><trkpt lat="56.8413733" lon="53.2209917"><time>2025-12-27T14:19:40.090</time></trkpt><trkpt lat="56.8414267" lon="53.2209567"><time>2025-12-27T14:19:42.087</time></trkpt><trkpt lat="56.8414767" lon="53.2209283"><time>2025-12-27T14:19:44.107</time></trkpt><trkpt lat="56.8415050" lon="53.2209133"><time>2025-12-27T14:19:45.080</time></trkpt><trkpt lat="56.8415517" lon="53.2209083"><time>2025-12-27T14:19:47.080</time></trkpt><trkpt lat="56.8416083" lon="53.2208750"><time>2025-12-27T14:19:51.077</time></trkpt><trkpt lat="56.8416550" lon="53.2208617"><time>2025-12-27T14:19:54.100</time></trkpt><trkpt lat="56.8417083" lon="53.2208367"><time>2025-12-27T14:19:59.083</time></trkpt><trkpt lat="56.8417533" lon="53.2207750"><time>2025-12-27T14:20:03.087</time></trkpt><trkpt lat="56.8417967" lon="53.2207167"><time>2025-12-27T14:20:07.093</time></trkpt><trkpt lat="56.8418433" lon="53.2206967"><time>2025-12-27T14:20:11.087</time></trkpt><trkpt lat="56.8418950" lon="53.2207167"><time>2025-12-27T14:20:14.073</time></trkpt><trkpt lat="56.8419433" lon="53.2207250"><time>2025-12-27T14:20:17.097</time></trkpt><trkpt lat="56.8419917" lon="53.2207200"><time>2025-12-27T14:20:20.080</time></trkpt><trkpt lat="56.8420450" lon="53.2206983"><time>2025-12-27T14:20:23.073</time></trkpt><trkpt lat="56.8421117" lon="53.2207050"><time>2025-12-27T14:20:26.087</time></trkpt><trkpt lat="56.8421733" lon="53.2206950"><time>2025-12-27T14:20:29.080</time></trkpt><trkpt lat="56.8422367" lon="53.2207100"><time>2025-12-27T14:20:32.083</time></trkpt><trkpt lat="56.8422750" lon="53.2206650"><time>2025-12-27T14:20:34.090</time></trkpt><trkpt lat="56.8423167" lon="53.2206300"><time>2025-12-27T14:20:36.087</time></trkpt><trkpt lat="56.8423633" lon="53.2206217"><time>2025-12-27T14:20:41.093</time></trkpt><trkpt lat="56.8424350" lon="53.2205633"><time>2025-12-27T14:20:50.107</time></trkpt><trkpt lat="56.8424450" lon="53.2205550"><time>2025-12-27T14:20:51.087</time></trkpt><trkpt lat="56.8425400" lon="53.2205867"><time>2025-12-27T14:21:00.097</time></trkpt><trkpt lat="56.8425867" lon="53.2205567"><time>2025-12-27T14:21:02.083</time></trkpt><trkpt lat="56.8426533" lon="53.2205267"><time>2025-12-27T14:21:04.083</time></trkpt><trkpt lat="56.8427183" lon="53.2205067"><time>2025-12-27T14:21:06.120</time></trkpt><trkpt lat="56.8427800" lon="53.2205050"><time>2025-12-27T14:21:08.077</time></trkpt><trkpt lat="56.8428333" lon="53.2205183"><time>2025-12-27T14:21:10.083</time></trkpt><trkpt lat="56.8429000" lon="53.2204867"><time>2025-12-27T14:21:13.083</time></trkpt><trkpt lat="56.8429517" lon="53.2204767"><time>2025-12-27T14:21:16.117</time></trkpt><trkpt lat="56.8429700" lon="53.2204767"><time>2025-12-27T14:21:17.080</time></trkpt><trkpt lat="56.8430700" lon="53.2205250"><time>2025-12-27T14:21:30.080</time></trkpt><trkpt lat="56.8431217" lon="53.2205183"><time>2025-12-27T14:21:33.093</time></trkpt><trkpt lat="56.8431767" lon="53.2204967"><time>2025-12-27T14:21:36.077</time></trkpt><trkpt lat="56.8432200" lon="53.2204617"><time>2025-12-27T14:21:38.090</time></trkpt><trkpt lat="56.8432700" lon="53.2204333"><time>2025-12-27T14:21:41.080</time></trkpt><trkpt lat="56.8433167" lon="53.2204117"><time>2025-12-27T14:21:45.087</time></trkpt><trkpt lat="56.8433667" lon="53.2203933"><time>2025-12-27T14:21:48.087</time></trkpt><trkpt lat="56.8434133" lon="53.2203567"><time>2025-12-27T14:21:54.080</time></trkpt><trkpt lat="56.8434733" lon="53.2203233"><time>2025-12-27T14:21:58.107</time></trkpt><trkpt lat="56.8434967" lon="53.2203217"><time>2025-12-27T14:21:59.093</time></trkpt><trkpt lat="56.8435467" lon="53.2203133"><time>2025-12-27T14:22:01.087</time></trkpt><trkpt lat="56.8436017" lon="53.2203017"><time>2025-12-27T14:22:03.087</time></trkpt><trkpt lat="56.8436567" lon="53.2202733"><time>2025-12-27T14:22:05.083</time></trkpt><trkpt lat="56.8437050" lon="53.2202633"><time>2025-12-27T14:22:07.090</time></trkpt><trkpt lat="56.8437517" lon="53.2202450"><time>2025-12-27T14:22:09.090</time></trkpt><trkpt lat="56.8437883" lon="53.2201850"><time>2025-12-27T14:22:11.087</time></trkpt><trkpt lat="56.8438333" lon="53.2201417"><time>2025-12-27T14:22:13.080</time></trkpt><trkpt lat="56.8438850" lon="53.2201117"><time>2025-12-27T14:22:15.083</time></trkpt><trkpt lat="56.8439467" lon="53.2200567"><time>2025-12-27T14:22:17.090</time></trkpt><trkpt lat="56.8439983" lon="53.2200550"><time>2025-12-27T14:22:19.113</time></trkpt><trkpt lat="56.8440217" lon="53.2200517"><time>2025-12-27T14:22:20.093</time></trkpt><trkpt lat="56.8440683" lon="53.2200133"><time>2025-12-27T14:22:22.080</time></trkpt><trkpt lat="56.8441200" lon="53.2199917"><time>2025-12-27T14:22:24.080</time></trkpt><trkpt lat="56.8441967" lon="53.2199433"><time>2025-12-27T14:22:30.077</time></trkpt><trkpt lat="56.8442400" lon="53.2199133"><time>2025-12-27T14:22:32.087</time></trkpt><trkpt lat="56.8442983" lon="53.2198983"><time>2025-12-27T14:22:34.080</time></trkpt><trkpt lat="56.8443450" lon="53.2199167"><time>2025-12-27T14:22:36.083</time></trkpt><trkpt lat="56.8443917" lon="53.2199133"><time>2025-12-27T14:22:39.093</time></trkpt><trkpt lat="56.8444417" lon="53.2199033"><time>2025-12-27T14:22:42.077</time></trkpt><trkpt lat="56.8444900" lon="53.2199183"><time>2025-12-27T14:22:45.093</time></trkpt><trkpt lat="56.8445400" lon="53.2198783"><time>2025-12-27T14:22:48.087</time></trkpt><trkpt lat="56.8445850" lon="53.2198833"><time>2025-12-27T14:22:51.090</time></trkpt><trkpt lat="56.8446300" lon="53.2198800"><time>2025-12-27T14:22:55.087</time></trkpt><trkpt lat="56.8447167" lon="53.2198000"><time>2025-12-27T14:23:03.093</time></trkpt><trkpt lat="56.8447683" lon="53.2197417"><time>2025-12-27T14:23:06.090</time></trkpt><trkpt lat="56.8448150" lon="53.2197033"><time>2025-12-27T14:23:09.093</time></trkpt><trkpt lat="56.8448667" lon="53.2197167"><time>2025-12-27T14:23:14.090</time></trkpt><trkpt lat="56.8449150" lon="53.2197350"><time>2025-12-27T14:23:20.113</time></trkpt><trkpt lat="56.8449150" lon="53.2197350"><time>2025-12-27T14:23:21.083</time></trkpt><trkpt lat="56.8449850" lon="53.2197433"><time>2025-12-27T14:23:24.087</time></trkpt><trkpt lat="56.8450400" lon="53.2197383"><time>2025-12-27T14:23:26.087</time></trkpt><trkpt lat="56.8450900" lon="53.2197367"><time>2025-12-27T14:23:28.090</time></trkpt><trkpt lat="56.8451467" lon="53.2197300"><time>2025-12-27T14:23:30.080</time></trkpt><trkpt lat="56.8451967" lon="53.2197083"><time>2025-12-27T14:23:32.090</time></trkpt><trkpt lat="56.8452500" lon="53.2196900"><time>2025-12-27T14:23:36.087</time></trkpt><trkpt lat="56.8452967" lon="53.2196867"><time>2025-12-27T14:23:39.087</time></trkpt><trkpt lat="56.8453433" lon="53.2196650"><time>2025-12-27T14:23:43.090</time></trkpt><trkpt lat="56.8454033" lon="53.2196650"><time>2025-12-27T14:23:46.077</time></trkpt><trkpt lat="56.8454583" lon="53.2196400"><time>2025-12-27T14:23:50.080</time></trkpt><trkpt lat="56.8455067" lon="53.2196383"><time>2025-12-27T14:23:53.077</time></trkpt><trkpt lat="56.8455517" lon="53.2196467"><time>2025-12-27T14:23:57.047</time></trkpt><trkpt lat="56.8456050" lon="53.2195950"><time>2025-12-27T14:24:02.087</time></trkpt><trkpt lat="56.8456567" lon="53.2196083"><time>2025-12-27T14:24:05.087</time></trkpt><trkpt lat="56.8457117" lon="53.2195867"><time>2025-12-27T14:24:08.083</time></trkpt><trkpt lat="56.8457683" lon="53.2195533"><time>2025-12-27T14:24:11.087</time></trkpt><trkpt lat="56.8458117" lon="53.2194750"><time>2025-12-27T14:24:13.073</time></trkpt><trkpt lat="56.8458600" lon="53.2193867"><time>2025-12-27T14:24:16.080</time></trkpt><trkpt lat="56.8459083" lon="53.2192900"><time>2025-12-27T14:24:18.083</time></trkpt><trkpt lat="56.8459850" lon="53.2193133"><time>2025-12-27T14:24:20.093</time></trkpt><trkpt lat="56.8460317" lon="53.2193200"><time>2025-12-27T14:24:22.103</time></trkpt><trkpt lat="56.8460900" lon="53.2192850"><time>2025-12-27T14:24:25.087</time></trkpt><trkpt lat="56.8461450" lon="53.2192817"><time>2025-12-27T14:24:27.087</time></trkpt><trkpt lat="56.8462033" lon="53.2192633"><time>2025-12-27T14:24:30.097</time></trkpt><trkpt lat="56.8462500" lon="53.2192683"><time>2025-12-27T14:24:33.070</time></trkpt><trkpt lat="56.8463117" lon="53.2192233"><time>2025-12-27T14:24:36.067</time></trkpt><trkpt lat="56.8463017" lon="53.2191383"><time>2025-12-27T14:24:37.067</time></trkpt><trkpt lat="56.8463367" lon="53.2190867"><time>2025-12-27T14:24:38.077</time></trkpt><trkpt lat="56.8463867" lon="53.2190967"><time>2025-12-27T14:24:39.087</time></trkpt><trkpt lat="56.8464333" lon="53.2191250"><time>2025-12-27T14:24:42.077</time></trkpt><trkpt lat="56.8464933" lon="53.2190883"><time>2025-12-27T14:24:45.087</time></trkpt><trkpt lat="56.8465267" lon="53.2190217"><time>2025-12-27T14:24:50.067</time></trkpt><trkpt lat="56.8465733" lon="53.2190750"><time>2025-12-27T14:24:56.083</time></trkpt><trkpt lat="56.8466300" lon="53.2190617"><time>2025-12-27T14:24:58.077</time></trkpt><trkpt lat="56.8466850" lon="53.2190450"><time>2025-12-27T14:25:01.130</time></trkpt><trkpt lat="56.8467117" lon="53.2190350"><time>2025-12-27T14:25:02.063</time></trkpt><trkpt lat="56.8467533" lon="53.2190000"><time>2025-12-27T14:25:04.100</time></trkpt><trkpt lat="56.8468100" lon="53.2190233"><time>2025-12-27T14:25:07.083</time></trkpt><trkpt lat="56.8468883" lon="53.2190550"><time>2025-12-27T14:25:13.083</time></trkpt><trkpt lat="56.8469417" lon="53.2190683"><time>2025-12-27T14:25:16.093</time></trkpt><trkpt lat="56.8469767" lon="53.2190133"><time>2025-12-27T14:25:21.093</time></trkpt><trkpt lat="56.8470383" lon="53.2189917"><time>2025-12-27T14:25:24.083</time></trkpt><trkpt lat="56.8470883" lon="53.2189367"><time>2025-12-27T14:25:27.080</time></trkpt><trkpt lat="56.8471417" lon="53.2189083"><time>2025-12-27T14:25:30.077</time></trkpt><trkpt lat="56.8472217" lon="53.2188900"><time>2025-12-27T14:25:32.087</time></trkpt><trkpt lat="56.8472700" lon="53.2188767"><time>2025-12-27T14:25:35.087</time></trkpt><trkpt lat="56.8473217" lon="53.2188383"><time>2025-12-27T14:25:37.093</time></trkpt><trkpt lat="56.8473750" lon="53.2188250"><time>2025-12-27T14:25:39.087</time></trkpt><trkpt lat="56.8474200" lon="53.2188133"><time>2025-12-27T14:25:41.093</time></trkpt><trkpt lat="56.8474767" lon="53.2188217"><time>2025-12-27T14:25:45.083</time></trkpt><trkpt lat="56.8475300" lon="53.2188300"><time>2025-12-27T14:25:49.087</time></trkpt><trkpt lat="56.8475833" lon="53.2187700"><time>2025-12-27T14:25:55.127</time></trkpt><trkpt lat="56.8475983" lon="53.2187583"><time>2025-12-27T14:25:56.080</time></trkpt><trkpt lat="56.8476583" lon="53.2187450"><time>2025-12-27T14:25:59.070</time></trkpt><trkpt lat="56.8477100" lon="53.2187150"><time>2025-12-27T14:26:01.093</time></trkpt><trkpt lat="56.8477533" lon="53.2186633"><time>2025-12-27T14:26:03.077</time></trkpt><trkpt lat="56.8477867" lon="53.2186083"><time>2025-12-27T14:26:05.087</time></trkpt><trkpt lat="56.8478333" lon="53.2185683"><time>2025-12-27T14:26:11.083</time></trkpt><trkpt lat="56.8479133" lon="53.2184267"><time>2025-12-27T14:26:21.090</time></trkpt><trkpt lat="56.8479600" lon="53.2183700"><time>2025-12-27T14:26:25.120</time></trkpt><trkpt lat="56.8479733" lon="53.2183617"><time>2025-12-27T14:26:26.087</time></trkpt><trkpt lat="56.8480200" lon="53.2183533"><time>2025-12-27T14:26:30.087</time></trkpt><trkpt lat="56.8480783" lon="53.2182933"><time>2025-12-27T14:26:43.087</time></trkpt><trkpt lat="56.8481417" lon="53.2182667"><time>2025-12-27T14:26:46.087</time></trkpt><trkpt lat="56.8481917" lon="53.2182217"><time>2025-12-27T14:26:49.087</time></trkpt><trkpt lat="56.8482567" lon="53.2182217"><time>2025-12-27T14:27:00.117</time></trkpt><trkpt lat="56.8482567" lon="53.2182217"><time>2025-12-27T14:27:00.527</time></trkpt><trkpt lat="56.8482967" lon="53.2181817"><time>2025-12-27T14:27:02.113</time></trkpt><trkpt lat="56.8483217" lon="53.2181650"><time>2025-12-27T14:27:03.090</time></trkpt><trkpt lat="56.8483667" lon="53.2181500"><time>2025-12-27T14:27:09.090</time></trkpt><trkpt lat="56.8484367" lon="53.2181117"><time>2025-12-27T14:27:18.083</time></trkpt><trkpt lat="56.8484733" lon="53.2180550"><time>2025-12-27T14:27:23.087</time></trkpt><trkpt lat="56.8484217" lon="53.2179617"><time>2025-12-27T14:27:44.087</time></trkpt><trkpt lat="56.8483767" lon="53.2179767"><time>2025-12-27T14:27:57.087</time></trkpt><trkpt lat="56.8483817" lon="53.2180583"><time>2025-12-27T14:28:10.090</time></trkpt><trkpt lat="56.8483900" lon="53.2179267"><time>2025-12-27T14:28:40.073</time></trkpt><trkpt lat="56.8483550" lon="53.2179867"><time>2025-12-27T14:28:51.087</time></trkpt><trkpt lat="56.8483917" lon="53.2180567"><time>2025-12-27T14:29:02.080</time></trkpt><trkpt lat="56.8483283" lon="53.2180833"><time>2025-12-27T14:29:30.090</time></trkpt><trkpt lat="56.8482683" lon="53.2180267"><time>2025-12-27T14:29:34.070</time></trkpt><trkpt lat="56.8481967" lon="53.2180133"><time>2025-12-27T14:29:36.083</time></trkpt><trkpt lat="56.8481200" lon="53.2180217"><time>2025-12-27T14:29:38.097</time></trkpt><trkpt lat="56.8480517" lon="53.2180333"><time>2025-12-27T14:29:40.067</time></trkpt><trkpt lat="56.8480017" lon="53.2180333"><time>2025-12-27T14:29:42.057</time></trkpt><trkpt lat="56.8479467" lon="53.2180800"><time>2025-12-27T14:29:44.097</time></trkpt><trkpt lat="56.8478967" lon="53.2181017"><time>2025-12-27T14:29:46.053</time></trkpt><trkpt lat="56.8478417" lon="53.2180967"><time>2025-12-27T14:29:48.047</time></trkpt><trkpt lat="56.8477800" lon="53.2181350"><time>2025-12-27T14:29:50.063</time></trkpt><trkpt lat="56.8477267" lon="53.2181400"><time>2025-12-27T14:29:52.047</time></trkpt><trkpt lat="56.8476683" lon="53.2181250"><time>2025-12-27T14:29:55.087</time></trkpt><trkpt lat="56.8476550" lon="53.2180050"><time>2025-12-27T14:30:04.087</time></trkpt><trkpt lat="56.8476483" lon="53.2179233"><time>2025-12-27T14:30:06.083</time></trkpt><trkpt lat="56.8476200" lon="53.2178367"><time>2025-12-27T14:30:09.087</time></trkpt><trkpt lat="56.8475583" lon="53.2178467"><time>2025-12-27T14:30:14.067</time></trkpt><trkpt lat="56.8474917" lon="53.2178583"><time>2025-12-27T14:30:16.070</time></trkpt><trkpt lat="56.8474400" lon="53.2178100"><time>2025-12-27T14:30:19.087</time></trkpt><trkpt lat="56.8473950" lon="53.2178467"><time>2025-12-27T14:30:22.087</time></trkpt><trkpt lat="56.8473400" lon="53.2178517"><time>2025-12-27T14:30:24.090</time></trkpt><trkpt lat="56.8472900" lon="53.2178700"><time>2025-12-27T14:30:26.083</time></trkpt><trkpt lat="56.8472500" lon="53.2179117"><time>2025-12-27T14:30:28.083</time></trkpt><trkpt lat="56.8471950" lon="53.2179117"><time>2025-12-27T14:30:30.093</time></trkpt><trkpt lat="56.8471283" lon="53.2179217"><time>2025-12-27T14:30:32.087</time></trkpt><trkpt lat="56.8470800" lon="53.2179450"><time>2025-12-27T14:30:34.087</time></trkpt><trkpt lat="56.8470350" lon="53.2179733"><time>2025-12-27T14:30:36.077</time></trkpt><trkpt lat="56.8469783" lon="53.2179950"><time>2025-12-27T14:30:38.087</time></trkpt><trkpt lat="56.8468667" lon="53.2181400"><time>2025-12-27T14:30:53.087</time></trkpt><trkpt lat="56.8468083" lon="53.2181183"><time>2025-12-27T14:30:56.090</time></trkpt><trkpt lat="56.8467733" lon="53.2180600"><time>2025-12-27T14:30:59.090</time></trkpt><trkpt lat="56.8467183" lon="53.2178550"><time>2025-12-27T14:31:06.083</time></trkpt><trkpt lat="56.8466967" lon="53.2177367"><time>2025-12-27T14:31:08.087</time></trkpt><trkpt lat="56.8466950" lon="53.2176167"><time>2025-12-27T14:31:11.087</time></trkpt><trkpt lat="56.8466850" lon="53.2175067"><time>2025-12-27T14:31:13.090</time></trkpt><trkpt lat="56.8466717" lon="53.2173900"><time>2025-12-27T14:31:15.090</time></trkpt><trkpt lat="56.8466583" lon="53.2172717"><time>2025-12-27T14:31:17.097</time></trkpt><trkpt lat="56.8466167" lon="53.2172400"><time>2025-12-27T14:31:19.090</time></trkpt><trkpt lat="56.8465583" lon="53.2172067"><time>2025-12-27T14:31:22.083</time></trkpt><trkpt lat="56.8465083" lon="53.2172283"><time>2025-12-27T14:31:24.087</time></trkpt><trkpt lat="56.8464650" lon="53.2172650"><time>2025-12-27T14:31:26.090</time></trkpt><trkpt lat="56.8465617" lon="53.2171350"><time>2025-12-27T14:31:33.090</time></trkpt><trkpt lat="56.8466383" lon="53.2170383"><time>2025-12-27T14:31:34.047</time></trkpt><trkpt lat="56.8464683" lon="53.2170017"><time>2025-12-27T14:31:36.080</time></trkpt><trkpt lat="56.8463333" lon="53.2170900"><time>2025-12-27T14:31:37.070</time></trkpt><trkpt lat="56.8462733" lon="53.2171150"><time>2025-12-27T14:31:38.053</time></trkpt><trkpt lat="56.8461917" lon="53.2171183"><time>2025-12-27T14:31:40.067</time></trkpt><trkpt lat="56.8461100" lon="53.2170800"><time>2025-12-27T14:31:42.053</time></trkpt><trkpt lat="56.8460500" lon="53.2170600"><time>2025-12-27T14:31:44.053</time></trkpt><trkpt lat="56.8460067" lon="53.2170233"><time>2025-12-27T14:31:46.047</time></trkpt><trkpt lat="56.8459883" lon="53.2169300"><time>2025-12-27T14:31:50.087</time></trkpt><trkpt lat="56.8459633" lon="53.2168350"><time>2025-12-27T14:31:53.087</time></trkpt><trkpt lat="56.8459800" lon="53.2167550"><time>2025-12-27T14:31:55.050</time></trkpt><trkpt lat="56.8459500" lon="53.2166750"><time>2025-12-27T14:31:58.050</time></trkpt><trkpt lat="56.8459483" lon="53.2165683"><time>2025-12-27T14:32:01.107</time></trkpt><trkpt lat="56.8459467" lon="53.2165283"><time>2025-12-27T14:32:02.057</time></trkpt><trkpt lat="56.8459367" lon="53.2164483"><time>2025-12-27T14:32:04.050</time></trkpt><trkpt lat="56.8459317" lon="53.2163333"><time>2025-12-27T14:32:07.093</time></trkpt><trkpt lat="56.8459350" lon="53.2162250"><time>2025-12-27T14:32:09.067</time></trkpt><trkpt lat="56.8459233" lon="53.2161267"><time>2025-12-27T14:32:12.093</time></trkpt><trkpt lat="56.8459050" lon="53.2160200"><time>2025-12-27T14:32:15.097</time></trkpt><trkpt lat="56.8458483" lon="53.2159900"><time>2025-12-27T14:32:18.103</time></trkpt><trkpt lat="56.8457950" lon="53.2159733"><time>2025-12-27T14:32:21.057</time></trkpt><trkpt lat="56.8457617" lon="53.2158783"><time>2025-12-27T14:32:24.090</time></trkpt><trkpt lat="56.8457333" lon="53.2157883"><time>2025-12-27T14:32:27.080</time></trkpt><trkpt lat="56.8457433" lon="53.2156933"><time>2025-12-27T14:32:31.067</time></trkpt><trkpt lat="56.8457533" lon="53.2156100"><time>2025-12-27T14:32:33.047</time></trkpt><trkpt lat="56.8457550" lon="53.2154967"><time>2025-12-27T14:32:36.097</time></trkpt><trkpt lat="56.8457467" lon="53.2154050"><time>2025-12-27T14:32:38.090</time></trkpt><trkpt lat="56.8457383" lon="53.2152883"><time>2025-12-27T14:32:41.097</time></trkpt><trkpt lat="56.8457250" lon="53.2151700"><time>2025-12-27T14:32:43.093</time></trkpt><trkpt lat="56.8457083" lon="53.2150667"><time>2025-12-27T14:32:46.090</time></trkpt><trkpt lat="56.8457017" lon="53.2149783"><time>2025-12-27T14:32:48.117</time></trkpt><trkpt lat="56.8456983" lon="53.2149367"><time>2025-12-27T14:32:49.087</time></trkpt><trkpt lat="56.8457017" lon="53.2148433"><time>2025-12-27T14:32:52.083</time></trkpt><trkpt lat="56.8456533" lon="53.2148133"><time>2025-12-27T14:32:55.070</time></trkpt><trkpt lat="56.8456533" lon="53.2147050"><time>2025-12-27T14:32:59.093</time></trkpt><trkpt lat="56.8456483" lon="53.2146167"><time>2025-12-27T14:33:03.087</time></trkpt><trkpt lat="56.8456383" lon="53.2145200"><time>2025-12-27T14:33:06.107</time></trkpt><trkpt lat="56.8456417" lon="53.2144150"><time>2025-12-27T14:33:10.097</time></trkpt><trkpt lat="56.8456400" lon="53.2143267"><time>2025-12-27T14:33:14.100</time></trkpt><trkpt lat="56.8455617" lon="53.2142067"><time>2025-12-27T14:33:30.103</time></trkpt><trkpt lat="56.8455900" lon="53.2143867"><time>2025-12-27T14:33:31.087</time></trkpt><trkpt lat="56.8456317" lon="53.2143550"><time>2025-12-27T14:33:32.103</time></trkpt><trkpt lat="56.8456200" lon="53.2142517"><time>2025-12-27T14:33:34.083</time></trkpt><trkpt lat="56.8456150" lon="53.2141300"><time>2025-12-27T14:33:36.187</time></trkpt><trkpt lat="56.8456117" lon="53.2140550"><time>2025-12-27T14:33:37.080</time></trkpt><trkpt lat="56.8456117" lon="53.2139700"><time>2025-12-27T14:33:38.103</time></trkpt><trkpt lat="56.8455967" lon="53.2138900"><time>2025-12-27T14:33:39.097</time></trkpt><trkpt lat="56.8455617" lon="53.2137950"><time>2025-12-27T14:33:41.073</time></trkpt><trkpt lat="56.8454983" lon="53.2137867"><time>2025-12-27T14:33:44.123</time></trkpt><trkpt lat="56.8454500" lon="53.2137883"><time>2025-12-27T14:33:46.080</time></trkpt><trkpt lat="56.8454283" lon="53.2138700"><time>2025-12-27T14:33:49.087</time></trkpt><trkpt lat="56.8454317" lon="53.2139833"><time>2025-12-27T14:33:52.167</time></trkpt></trkseg></trk></gpx>